Time,TemperatureF,DewpointF,PressureIn,WindDirection,WindDirectionDegrees,WindSpeedMPH,WindSpeedGustMPH,Humidity,HourlyPrecipIn,Conditions,Clouds,dailyrainin,SoftwareType,DateUTC
2013-01-01 00:00:00,71.7,60.0,30.29,South,176,7.1,7.9,67,0.00,,---,0.00,VWS V14.01,2013-01-01 05:00:00,
2013-01-01 00:01:00,67.4,59.4,30.15,SE,139,0.0,0.0,76,0.00,,---,0.00,VWS V14.01,2013-01-01 05:01:00,
2013-01-01 00:02:00,67.2,59.2,30.15,SE,139,0.0,0.0,76,0.00,,---,0.00,VWS V14.01,2013-01-01 05:02:00,
2013-01-01 00:03:00,71.5,59.5,30.29,SSW,202,2.0,4.0,66,0.00,,---,0.00,VWS V14.01,2013-01-01 05:03:00,
2013-01-01 00:04:00,67.3,59.3,30.15,SE,139,0.0,0.0,75,0.00,,---,0.00,VWS V14.01,2013-01-01 05:04:00,
2013-01-01 00:05:00,71.7,59.5,30.29,SSW,208,2.8,5.2,65,0.00,,---,0.00,VWS V14.01,2013-01-01 05:05:00,
2013-01-01 00:06:00,67.1,59.0,30.15,SE,139,0.0,0.0,75,0.00,,---,0.00,VWS V14.01,2013-01-01 05:06:00,
2013-01-01 00:07:00,67.2,59.1,30.15,SE,139,0.0,0.0,75,0.00,,---,0.00,VWS V14.01,2013-01-01 05:07:00,
2013-01-01 00:08:00,71.5,58.8,30.29,SSW,207,5.0,5.8,64,0.00,,---,0.00,VWS V14.01,2013-01-01 05:08:00,
2013-01-01 00:09:00,67.2,59.1,30.15,SE,139,0.0,0.0,75,0.00,,---,0.00,VWS V14.01,2013-01-01 05:09:00,
2013-01-01 00:10:00,71.4,58.7,30.29,South,186,3.0,5.4,64,0.00,,---,0.00,VWS V14.01,2013-01-01 05:10:00,
2013-01-01 00:11:00,67.1,59.0,30.15,SE,139,0.0,0.0,75,0.00,,---,0.00,VWS V14.01,2013-01-01 05:11:00,
2013-01-01 00:12:00,67.1,59.1,30.14,SE,139,0.0,0.0,75,0.00,,---,0.00,VWS V14.01,2013-01-01 05:12:00,
2013-01-01 00:13:00,71.5,58.6,30.29,SSW,211,4.7,6.2,64,0.00,,---,0.00,VWS V14.01,2013-01-01 05:13:00,
2013-01-01 00:15:00,71.5,58.3,30.29,SSW,202,3.4,8.5,63,0.00,,---,0.00,VWS V14.01,2013-01-01 05:15:00,
2013-01-01 00:18:00,71.4,58.0,30.29,SSW,210,7.7,9.8,63,0.00,,---,0.00,VWS V14.01,2013-01-01 05:18:00,
2013-01-01 00:20:00,71.4,57.9,30.29,South,190,2.6,5.5,62,0.00,,---,0.00,VWS V14.01,2013-01-01 05:20:00,
2013-01-01 00:23:00,71.5,57.8,30.28,South,177,5.0,6.9,62,0.00,,---,0.00,VWS V14.01,2013-01-01 05:23:00,
2013-01-01 00:25:00,71.3,57.7,30.28,WSW,239,3.8,6.6,62,0.00,,---,0.00,VWS V14.01,2013-01-01 05:25:00,
2013-01-01 00:28:00,71.2,57.4,30.28,SSW,208,5.6,8.6,62,0.00,,---,0.00,VWS V14.01,2013-01-01 05:28:00,
2013-01-01 00:30:00,71.3,57.6,30.28,SSW,204,3.6,5.5,62,0.00,,---,0.00,VWS V14.01,2013-01-01 05:30:00,
2013-01-01 00:34:00,71.0,57.5,30.28,SSW,202,6.6,7.1,62,0.00,,---,0.00,VWS V14.01,2013-01-01 05:34:00,
2013-01-01 00:35:00,71.0,57.6,30.28,SSW,198,3.9,4.5,62,0.00,,---,0.00,VWS V14.01,2013-01-01 05:35:00,
2013-01-01 00:36:00,71.0,57.6,30.28,SSW,202,3.3,4.5,63,0.00,,---,0.00,VWS V14.01,2013-01-01 05:36:00,
2013-01-01 00:39:00,70.9,57.6,30.28,SW,222,6.8,9.6,63,0.00,,---,0.00,VWS V14.01,2013-01-01 05:39:00,
2013-01-01 00:40:00,70.8,57.5,30.28,SSW,212,6.9,6.9,63,0.00,,---,0.00,VWS V14.01,2013-01-01 05:40:00,
2013-01-01 00:41:00,70.8,57.5,30.28,SSW,198,2.8,6.9,63,0.00,,---,0.00,VWS V14.01,2013-01-01 05:41:00,
2013-01-01 00:44:00,70.8,57.6,30.28,SSW,205,4.1,5.3,63,0.00,,---,0.00,VWS V14.01,2013-01-01 05:44:00,
2013-01-01 00:46:00,70.8,57.7,30.28,SSW,210,3.8,4.0,63,0.00,,---,0.00,VWS V14.01,2013-01-01 05:46:00,
2013-01-01 00:49:00,70.6,57.5,30.28,SW,221,1.9,5.0,63,0.00,,---,0.00,VWS V14.01,2013-01-01 05:49:00,
2013-01-01 00:51:00,70.5,57.5,30.28,SSW,202,3.9,6.1,63,0.00,,---,0.00,VWS V14.01,2013-01-01 05:51:00,
2013-01-01 00:54:00,70.5,57.6,30.28,South,179,2.1,4.9,64,0.00,,---,0.00,VWS V14.01,2013-01-01 05:54:00,
2013-01-01 00:56:00,70.5,57.7,30.28,SSW,195,3.8,5.3,64,0.00,,---,0.00,VWS V14.01,2013-01-01 05:56:00,
2013-01-01 00:59:00,70.4,57.7,30.28,SSW,205,1.7,3.5,64,0.00,,---,0.00,VWS V14.01,2013-01-01 05:59:00,
2013-01-01 01:01:00,70.3,57.6,30.28,South,186,0.3,0.4,64,0.00,,---,0.00,VWS V14.01,2013-01-01 06:01:00,
2013-01-01 01:04:00,70.1,57.6,30.28,SW,217,2.7,3.5,64,0.00,,---,0.00,VWS V14.01,2013-01-01 06:04:00,
2013-01-01 01:06:00,70.1,57.7,30.28,SSW,210,0.8,1.8,65,0.00,,---,0.00,VWS V14.01,2013-01-01 06:06:00,
2013-01-01 01:07:00,70.0,57.6,30.28,SSW,200,1.1,1.1,65,0.00,,---,0.00,VWS V14.01,2013-01-01 06:07:00,
2013-01-01 01:09:00,69.8,57.5,30.28,SE,128,0.2,4.2,65,0.00,,---,0.00,VWS V14.01,2013-01-01 06:09:00,
2013-01-01 01:11:00,69.8,57.5,30.28,South,188,1.0,3.0,65,0.00,,---,0.00,VWS V14.01,2013-01-01 06:11:00,
2013-01-01 01:12:00,69.9,57.6,30.28,SSW,198,0.5,1.0,65,0.00,,---,0.00,VWS V14.01,2013-01-01 06:12:00,
2013-01-01 01:14:00,69.9,57.6,30.28,SSE,160,0.0,0.0,65,0.00,,---,0.00,VWS V14.01,2013-01-01 06:14:00,
2013-01-01 01:16:00,69.7,57.4,30.28,SW,221,0.6,0.6,65,0.00,,---,0.00,VWS V14.01,2013-01-01 06:16:00,
2013-01-01 01:17:00,69.8,57.5,30.28,SSW,194,0.6,0.9,65,0.00,,---,0.00,VWS V14.01,2013-01-01 06:17:00,
2013-01-01 01:19:00,69.7,57.5,30.28,South,176,0.0,0.0,65,0.00,,---,0.00,VWS V14.01,2013-01-01 06:19:00,
2013-01-01 01:21:00,69.6,57.5,30.28,South,176,0.0,0.0,65,0.00,,---,0.00,VWS V14.01,2013-01-01 06:21:00,
2013-01-01 01:22:00,69.5,57.4,30.28,South,176,0.0,0.0,65,0.00,,---,0.00,VWS V14.01,2013-01-01 06:22:00,
2013-01-01 01:25:00,69.3,57.3,30.28,South,176,0.0,0.0,66,0.00,,---,0.00,VWS V14.01,2013-01-01 06:25:00,
2013-01-01 01:26:00,69.4,57.5,30.28,South,176,0.0,0.0,66,0.00,,---,0.00,VWS V14.01,2013-01-01 06:26:00,
2013-01-01 01:27:00,69.5,57.6,30.28,South,176,0.0,0.0,66,0.00,,---,0.00,VWS V14.01,2013-01-01 06:27:00,
2013-01-01 01:30:00,69.4,57.6,30.28,South,176,0.0,0.0,66,0.00,,---,0.00,VWS V14.01,2013-01-01 06:30:00,
2013-01-01 01:32:00,69.3,57.6,30.28,SW,217,0.7,0.7,66,0.00,,---,0.00,VWS V14.01,2013-01-01 06:32:00,
2013-01-01 01:35:00,69.1,57.7,30.28,South,184,4.5,4.5,67,0.00,,---,0.00,VWS V14.01,2013-01-01 06:35:00,
2013-01-01 01:37:00,69.1,58.1,30.28,SSW,212,6.7,7.4,68,0.00,,---,0.00,VWS V14.01,2013-01-01 06:37:00,
2013-01-01 01:40:00,69.5,58.3,30.28,South,184,5.5,5.8,68,0.00,,---,0.00,VWS V14.01,2013-01-01 06:40:00,
2013-01-01 01:42:00,69.6,58.4,30.28,SSW,205,7.4,8.9,68,0.00,,---,0.00,VWS V14.01,2013-01-01 06:42:00,
2013-01-01 01:45:00,70.1,58.3,30.28,SSE,163,4.9,5.4,66,0.00,,---,0.00,VWS V14.01,2013-01-01 06:45:00,
2013-01-01 01:47:00,70.4,58.4,30.28,SSW,198,4.3,4.3,66,0.00,,---,0.00,VWS V14.01,2013-01-01 06:47:00,
2013-01-01 01:48:00,70.5,58.2,30.27,South,176,3.7,3.9,65,0.00,,---,0.00,VWS V14.01,2013-01-01 06:48:00,
2013-01-01 01:50:00,70.7,58.4,30.27,South,186,4.7,6.6,65,0.00,,---,0.00,VWS V14.01,2013-01-01 06:50:00,
2013-01-01 01:52:00,70.7,58.1,30.27,SE,135,3.9,6.2,64,0.00,,---,0.00,VWS V14.01,2013-01-01 06:52:00,
2013-01-01 01:53:00,70.9,57.7,30.27,South,177,7.5,10.6,63,0.00,,---,0.00,VWS V14.01,2013-01-01 06:53:00,
2013-01-01 01:55:00,70.9,57.6,30.27,South,177,3.5,5.8,63,0.00,,---,0.00,VWS V14.01,2013-01-01 06:55:00,
2013-01-01 01:57:00,71.0,57.6,30.27,SW,225,3.3,7.9,63,0.00,,---,0.00,VWS V14.01,2013-01-01 06:57:00,
2013-01-01 01:58:00,71.2,57.8,30.28,SSW,201,4.0,7.0,62,0.00,,---,0.00,VWS V14.01,2013-01-01 06:58:00,
2013-01-01 02:00:00,71.0,57.4,30.28,South,188,6.7,6.7,62,0.00,,---,0.00,VWS V14.01,2013-01-01 07:00:00,
2013-01-01 02:02:00,71.1,57.4,30.28,South,180,3.6,4.0,62,0.00,,---,0.00,VWS V14.01,2013-01-01 07:02:00,
2013-01-01 02:03:00,70.9,57.0,30.28,South,173,4.5,7.5,62,0.00,,---,0.00,VWS V14.01,2013-01-01 07:03:00,
2013-01-01 02:05:00,70.9,56.8,30.28,SSE,160,6.3,9.4,61,0.00,,---,0.00,VWS V14.01,2013-01-01 07:05:00,
2013-01-01 02:07:00,70.9,56.8,30.28,South,177,6.3,7.1,61,0.00,,---,0.00,VWS V14.01,2013-01-01 07:07:00,
2013-01-01 02:08:00,71.0,57.0,30.28,South,186,2.5,3.0,61,0.00,,---,0.00,VWS V14.01,2013-01-01 07:08:00,
2013-01-01 02:10:00,71.0,56.8,30.28,South,176,2.7,5.0,61,0.00,,---,0.00,VWS V14.01,2013-01-01 07:10:00,
2013-01-01 02:12:00,71.0,56.9,30.28,SW,228,4.0,4.0,61,0.00,,---,0.00,VWS V14.01,2013-01-01 07:12:00,
2013-01-01 02:13:00,70.8,56.6,30.28,South,170,2.2,5.2,61,0.00,,---,0.00,VWS V14.01,2013-01-01 07:13:00,
2013-01-01 02:15:00,70.6,56.4,30.28,South,177,2.9,7.0,61,0.00,,---,0.00,VWS V14.01,2013-01-01 07:15:00,
2013-01-01 02:17:00,70.8,56.7,30.28,South,186,3.4,5.7,61,0.00,,---,0.00,VWS V14.01,2013-01-01 07:17:00,
2013-01-01 02:18:00,70.5,56.5,30.28,SSW,194,5.2,5.2,61,0.00,,---,0.00,VWS V14.01,2013-01-01 07:18:00,
2013-01-01 02:20:00,70.7,56.7,30.28,SSW,193,2.5,2.9,61,0.00,,---,0.00,VWS V14.01,2013-01-01 07:20:00,
2013-01-01 02:22:00,70.5,56.5,30.28,SW,215,2.4,5.5,61,0.00,,---,0.00,VWS V14.01,2013-01-01 07:22:00,
2013-01-01 02:23:00,70.5,56.6,30.27,SSW,211,2.7,4.0,62,0.00,,---,0.00,VWS V14.01,2013-01-01 07:23:00,
2013-01-01 02:25:00,70.4,56.6,30.27,South,173,0.5,2.2,62,0.00,,---,0.00,VWS V14.01,2013-01-01 07:25:00,
2013-01-01 02:27:00,70.5,56.8,30.28,SE,139,0.6,1.2,62,0.00,,---,0.00,VWS V14.01,2013-01-01 07:27:00,
2013-01-01 02:28:00,70.5,56.9,30.27,SW,226,2.2,3.5,62,0.00,,---,0.00,VWS V14.01,2013-01-01 07:28:00,
2013-01-01 02:30:00,70.3,56.8,30.27,South,174,1.2,3.4,62,0.00,,---,0.00,VWS V14.01,2013-01-01 07:30:00,
2013-01-01 02:32:00,70.2,56.8,30.28,South,169,2.7,2.8,63,0.00,,---,0.00,VWS V14.01,2013-01-01 07:32:00,
2013-01-01 02:33:00,70.1,56.8,30.28,SSW,198,2.4,2.4,63,0.00,,---,0.00,VWS V14.01,2013-01-01 07:33:00,
2013-01-01 02:35:00,70.1,56.9,30.28,SSW,201,2.5,3.2,63,0.00,,---,0.00,VWS V14.01,2013-01-01 07:35:00,
2013-01-01 02:37:00,69.9,56.8,30.28,SSW,193,2.7,2.7,63,0.00,,---,0.00,VWS V14.01,2013-01-01 07:37:00,
2013-01-01 02:38:00,70.0,56.9,30.28,South,187,2.2,2.2,63,0.00,,---,0.00,VWS V14.01,2013-01-01 07:38:00,
2013-01-01 02:39:00,70.0,56.9,30.28,SW,218,0.7,2.3,63,0.00,,---,0.00,VWS V14.01,2013-01-01 07:39:00,
2013-01-01 02:40:00,70.0,56.9,30.27,South,191,0.0,0.0,63,0.00,,---,0.00,VWS V14.01,2013-01-01 07:40:00,
2013-01-01 02:43:00,69.9,56.9,30.27,SSE,163,0.4,1.0,63,0.00,,---,0.00,VWS V14.01,2013-01-01 07:43:00,
2013-01-01 02:44:00,69.8,56.9,30.27,SE,145,0.6,1.4,64,0.00,,---,0.00,VWS V14.01,2013-01-01 07:44:00,
2013-01-01 02:46:00,69.6,56.9,30.27,South,174,5.5,6.4,64,0.00,,---,0.00,VWS V14.01,2013-01-01 07:46:00,
2013-01-01 02:48:00,69.5,56.9,30.27,SW,221,2.9,3.7,64,0.00,,---,0.00,VWS V14.01,2013-01-01 07:48:00,
2013-01-01 02:49:00,69.5,57.0,30.27,South,176,2.7,3.8,64,0.00,,---,0.00,VWS V14.01,2013-01-01 07:49:00,
2013-01-01 02:51:00,69.4,57.0,30.27,SSW,202,2.4,4.4,65,0.00,,---,0.00,VWS V14.01,2013-01-01 07:51:00,
2013-01-01 02:53:00,69.3,56.9,30.27,SSW,205,2.6,2.7,65,0.00,,---,0.00,VWS V14.01,2013-01-01 07:53:00,
2013-01-01 02:54:00,69.5,57.1,30.27,South,187,2.0,2.1,65,0.00,,---,0.00,VWS V14.01,2013-01-01 07:54:00,
2013-01-01 02:56:00,69.4,57.0,30.27,SSW,208,1.1,1.2,65,0.00,,---,0.00,VWS V14.01,2013-01-01 07:56:00,
2013-01-01 02:58:00,69.2,56.9,30.27,South,190,0.0,0.0,65,0.00,,---,0.00,VWS V14.01,2013-01-01 07:58:00,
2013-01-01 02:59:00,69.2,56.9,30.27,South,190,0.0,0.0,65,0.00,,---,0.00,VWS V14.01,2013-01-01 07:59:00,
2013-01-01 03:01:00,69.2,56.9,30.27,South,190,0.0,0.0,65,0.00,,---,0.00,VWS V14.01,2013-01-01 08:01:00,
2013-01-01 03:03:00,69.0,56.8,30.27,South,190,0.0,0.0,65,0.00,,---,0.00,VWS V14.01,2013-01-01 08:03:00,
2013-01-01 03:04:00,69.0,56.8,30.27,SW,224,1.4,1.9,65,0.00,,---,0.00,VWS V14.01,2013-01-01 08:04:00,
2013-01-01 03:06:00,68.8,56.8,30.27,SSW,194,0.0,0.8,66,0.00,,---,0.00,VWS V14.01,2013-01-01 08:06:00,
2013-01-01 03:08:00,68.7,56.8,30.27,SSW,201,0.0,1.3,66,0.00,,---,0.00,VWS V14.01,2013-01-01 08:08:00,
2013-01-01 03:09:00,68.6,56.8,30.27,SSW,201,0.0,0.0,66,0.00,,---,0.00,VWS V14.01,2013-01-01 08:09:00,
2013-01-01 03:11:00,68.6,56.8,30.27,SSW,201,0.0,0.0,66,0.00,,---,0.00,VWS V14.01,2013-01-01 08:11:00,
2013-01-01 03:13:00,68.6,56.8,30.27,SSW,201,0.0,0.0,66,0.00,,---,0.00,VWS V14.01,2013-01-01 08:13:00,
2013-01-01 03:14:00,68.5,56.8,30.27,SSW,201,0.0,0.0,66,0.00,,---,0.00,VWS V14.01,2013-01-01 08:14:00,
2013-01-01 03:16:00,68.4,56.8,30.27,SSW,201,0.0,0.0,66,0.00,,---,0.00,VWS V14.01,2013-01-01 08:16:00,
2013-01-01 03:18:00,68.2,56.7,30.27,SSW,201,0.0,0.0,67,0.00,,---,0.00,VWS V14.01,2013-01-01 08:18:00,
2013-01-01 03:19:00,68.2,56.7,30.27,SSW,201,0.0,0.0,67,0.00,,---,0.00,VWS V14.01,2013-01-01 08:19:00,
2013-01-01 03:21:00,68.1,56.7,30.27,SSW,201,0.0,0.0,67,0.00,,---,0.00,VWS V14.01,2013-01-01 08:21:00,
2013-01-01 03:23:00,68.1,56.9,30.27,SSW,201,0.0,0.0,67,0.00,,---,0.00,VWS V14.01,2013-01-01 08:23:00,
2013-01-01 03:24:00,67.9,56.7,30.27,SSW,201,0.0,0.0,67,0.00,,---,0.00,VWS V14.01,2013-01-01 08:24:00,
2013-01-01 03:26:00,67.9,56.8,30.27,SSW,201,0.0,0.0,68,0.00,,---,0.00,VWS V14.01,2013-01-01 08:26:00,
2013-01-01 03:28:00,67.7,56.7,30.28,SSW,201,0.0,0.0,68,0.00,,---,0.00,VWS V14.01,2013-01-01 08:28:00,
2013-01-01 03:29:00,67.7,56.7,30.28,SSW,201,0.0,0.0,68,0.00,,---,0.00,VWS V14.01,2013-01-01 08:29:00,
2013-01-01 03:31:00,67.5,56.7,30.28,SSW,201,0.0,0.5,68,0.00,,---,0.00,VWS V14.01,2013-01-01 08:31:00,
2013-01-01 03:33:00,67.3,56.5,30.27,SSW,201,0.0,0.0,68,0.00,,---,0.00,VWS V14.01,2013-01-01 08:33:00,
2013-01-01 03:34:00,67.3,56.6,30.27,SSW,201,0.0,0.0,68,0.00,,---,0.00,VWS V14.01,2013-01-01 08:34:00,
2013-01-01 03:35:00,67.3,56.6,30.27,SSW,201,0.0,0.0,68,0.00,,---,0.00,VWS V14.01,2013-01-01 08:35:00,
2013-01-01 03:36:00,67.4,56.8,30.27,SSW,201,0.0,0.0,69,0.00,,---,0.00,VWS V14.01,2013-01-01 08:36:00,
2013-01-01 03:38:00,67.1,56.5,30.27,SSW,201,0.0,0.0,69,0.00,,---,0.00,VWS V14.01,2013-01-01 08:38:00,
2013-01-01 03:39:00,67.1,56.6,30.27,SSW,201,0.0,0.0,69,0.00,,---,0.00,VWS V14.01,2013-01-01 08:39:00,
2013-01-01 03:40:00,67.1,56.6,30.27,SSW,201,0.0,0.0,69,0.00,,---,0.00,VWS V14.01,2013-01-01 08:40:00,
2013-01-01 03:41:00,67.0,56.5,30.27,SSW,201,0.0,0.0,69,0.00,,---,0.00,VWS V14.01,2013-01-01 08:41:00,
2013-01-01 03:43:00,66.9,56.5,30.27,SSW,201,0.0,0.0,69,0.00,,---,0.00,VWS V14.01,2013-01-01 08:43:00,
2013-01-01 03:44:00,66.8,56.4,30.27,SW,217,0.0,0.0,69,0.00,,---,0.00,VWS V14.01,2013-01-01 08:44:00,
2013-01-01 03:45:00,66.8,56.4,30.27,SSW,195,1.2,1.4,69,0.00,,---,0.00,VWS V14.01,2013-01-01 08:45:00,
2013-01-01 03:46:00,66.7,56.5,30.27,South,177,0.0,0.0,70,0.00,,---,0.00,VWS V14.01,2013-01-01 08:46:00,
2013-01-01 03:48:00,66.7,56.5,30.27,South,177,0.0,0.0,70,0.00,,---,0.00,VWS V14.01,2013-01-01 08:48:00,
2013-01-01 03:49:00,66.6,56.4,30.27,South,177,0.0,0.0,70,0.00,,---,0.00,VWS V14.01,2013-01-01 08:49:00,
2013-01-01 03:50:00,66.7,56.6,30.27,South,177,0.0,0.0,70,0.00,,---,0.00,VWS V14.01,2013-01-01 08:50:00,
2013-01-01 03:52:00,66.5,56.4,30.27,South,177,0.0,0.0,70,0.00,,---,0.00,VWS V14.01,2013-01-01 08:52:00,
2013-01-01 03:53:00,66.7,56.7,30.26,South,177,0.0,0.0,70,0.00,,---,0.00,VWS V14.01,2013-01-01 08:53:00,
2013-01-01 03:54:00,66.4,56.4,30.27,South,177,0.0,0.0,70,0.00,,---,0.00,VWS V14.01,2013-01-01 08:54:00,
2013-01-01 03:55:00,66.3,56.3,30.26,South,177,0.0,0.0,70,0.00,,---,0.00,VWS V14.01,2013-01-01 08:55:00,
2013-01-01 03:57:00,66.4,56.5,30.26,South,174,0.0,0.0,70,0.00,,---,0.00,VWS V14.01,2013-01-01 08:57:00,
2013-01-01 03:59:00,66.3,56.4,30.26,South,174,0.0,0.0,70,0.00,,---,0.00,VWS V14.01,2013-01-01 08:59:00,
2013-01-01 04:00:00,66.3,56.5,30.26,South,174,0.0,0.0,71,0.00,,---,0.00,VWS V14.01,2013-01-01 09:00:00,
2013-01-01 04:02:00,66.4,56.7,30.26,South,174,0.0,0.0,71,0.00,,---,0.00,VWS V14.01,2013-01-01 09:02:00,
2013-01-01 04:04:00,66.3,56.7,30.26,South,174,0.0,0.0,71,0.00,,---,0.00,VWS V14.01,2013-01-01 09:04:00,
2013-01-01 04:05:00,66.3,56.9,30.26,South,174,0.0,0.0,72,0.00,,---,0.00,VWS V14.01,2013-01-01 09:05:00,
2013-01-01 04:07:00,66.5,57.0,30.26,South,174,0.0,0.0,72,0.00,,---,0.00,VWS V14.01,2013-01-01 09:07:00,
2013-01-01 04:09:00,66.3,56.8,30.26,South,174,0.0,0.0,71,0.00,,---,0.00,VWS V14.01,2013-01-01 09:09:00,
2013-01-01 04:10:00,66.4,56.9,30.26,South,174,0.0,0.0,72,0.00,,---,0.00,VWS V14.01,2013-01-01 09:10:00,
2013-01-01 04:12:00,66.6,57.1,30.26,South,174,0.0,0.0,72,0.00,,---,0.00,VWS V14.01,2013-01-01 09:12:00,
2013-01-01 04:14:00,66.4,57.0,30.26,South,174,0.0,0.0,72,0.00,,---,0.00,VWS V14.01,2013-01-01 09:14:00,
2013-01-01 04:15:00,66.4,57.0,30.26,South,174,0.0,0.0,72,0.00,,---,0.00,VWS V14.01,2013-01-01 09:15:00,
2013-01-01 04:17:00,66.5,57.2,30.26,South,174,0.0,0.0,72,0.00,,---,0.00,VWS V14.01,2013-01-01 09:17:00,
2013-01-01 04:19:00,66.6,57.2,30.26,South,174,0.0,0.0,72,0.00,,---,0.00,VWS V14.01,2013-01-01 09:19:00,
2013-01-01 04:20:00,66.6,57.2,30.26,South,174,0.0,0.0,72,0.00,,---,0.00,VWS V14.01,2013-01-01 09:20:00,
2013-01-01 04:22:00,66.8,57.4,30.26,South,174,0.0,0.0,72,0.00,,---,0.00,VWS V14.01,2013-01-01 09:22:00,
2013-01-01 04:25:00,66.7,57.3,30.26,South,174,0.0,0.0,72,0.00,,---,0.00,VWS V14.01,2013-01-01 09:25:00,
2013-01-01 04:26:00,66.8,57.4,30.26,South,174,0.0,0.0,72,0.00,,---,0.00,VWS V14.01,2013-01-01 09:26:00,
2013-01-01 04:27:00,66.8,57.5,30.26,South,174,0.0,0.0,72,0.00,,---,0.00,VWS V14.01,2013-01-01 09:27:00,
2013-01-01 04:30:00,66.7,57.4,30.26,South,174,0.0,0.0,72,0.00,,---,0.00,VWS V14.01,2013-01-01 09:30:00,
2013-01-01 04:31:00,66.9,57.6,30.25,South,174,0.0,0.0,72,0.00,,---,0.00,VWS V14.01,2013-01-01 09:31:00,
2013-01-01 04:33:00,67.0,57.7,30.25,South,174,0.0,0.0,72,0.00,,---,0.00,VWS V14.01,2013-01-01 09:33:00,
2013-01-01 04:35:00,66.9,57.6,30.25,South,174,0.0,0.0,72,0.00,,---,0.00,VWS V14.01,2013-01-01 09:35:00,
2013-01-01 04:36:00,66.8,57.5,30.25,South,174,0.0,0.0,72,0.00,,---,0.00,VWS V14.01,2013-01-01 09:36:00,
2013-01-01 04:38:00,67.1,58.0,30.25,South,174,0.0,0.0,73,0.00,,---,0.00,VWS V14.01,2013-01-01 09:38:00,
2013-01-01 04:40:00,67.1,58.0,30.25,WSW,239,1.7,3.0,72,0.00,,---,0.00,VWS V14.01,2013-01-01 09:40:00,
2013-01-01 04:41:00,67.3,58.1,30.26,SW,228,0.0,0.7,72,0.00,,---,0.00,VWS V14.01,2013-01-01 09:41:00,
2013-01-01 04:43:00,67.5,58.4,30.25,SSW,193,0.0,0.0,72,0.00,,---,0.00,VWS V14.01,2013-01-01 09:43:00,
2013-01-01 04:45:00,67.5,58.4,30.25,South,172,1.8,2.6,73,0.00,,---,0.00,VWS V14.01,2013-01-01 09:45:00,
2013-01-01 04:46:00,67.5,58.3,30.25,South,191,0.5,1.7,72,0.00,,---,0.00,VWS V14.01,2013-01-01 09:46:00,
2013-01-01 04:48:00,67.7,58.4,30.25,SW,222,3.0,3.0,72,0.00,,---,0.00,VWS V14.01,2013-01-01 09:48:00,
2013-01-01 04:50:00,67.8,58.3,30.25,SSW,198,2.5,6.0,72,0.00,,---,0.00,VWS V14.01,2013-01-01 09:50:00,
2013-01-01 04:51:00,67.8,58.3,30.25,South,181,2.7,4.0,72,0.00,,---,0.00,VWS V14.01,2013-01-01 09:51:00,
2013-01-01 04:53:00,68.0,58.2,30.25,South,186,3.2,6.6,71,0.00,,---,0.00,VWS V14.01,2013-01-01 09:53:00,
2013-01-01 04:55:00,68.2,57.9,30.24,South,181,3.9,7.0,70,0.00,,---,0.00,VWS V14.01,2013-01-01 09:55:00,
2013-01-01 04:56:00,68.2,57.7,30.25,South,173,4.5,5.1,69,0.00,,---,0.00,VWS V14.01,2013-01-01 09:56:00,
2013-01-01 04:58:00,68.5,57.7,30.25,SSW,197,4.5,5.5,68,0.00,,---,0.00,VWS V14.01,2013-01-01 09:58:00,
2013-01-01 05:00:00,68.5,57.5,30.25,SSW,211,2.2,4.8,68,0.00,,---,0.00,VWS V14.01,2013-01-01 10:00:00,
2013-01-01 05:01:00,68.8,57.6,30.25,South,184,2.7,5.7,68,0.00,,---,0.00,VWS V14.01,2013-01-01 10:01:00,
2013-01-01 05:03:00,68.9,57.5,30.25,SSW,201,2.2,4.5,67,0.00,,---,0.00,VWS V14.01,2013-01-01 10:03:00,
2013-01-01 05:05:00,69.1,57.6,30.25,SSW,211,2.5,4.8,67,0.00,,---,0.00,VWS V14.01,2013-01-01 10:05:00,
2013-01-01 05:06:00,69.2,57.7,30.24,South,191,2.6,5.5,67,0.00,,---,0.00,VWS V14.01,2013-01-01 10:06:00,
2013-01-01 05:09:00,69.4,57.8,30.24,South,173,1.0,2.3,67,0.00,,---,0.00,VWS V14.01,2013-01-01 10:09:00,
2013-01-01 05:10:00,69.3,57.6,30.24,SSW,204,1.9,2.2,66,0.00,,---,0.00,VWS V14.01,2013-01-01 10:10:00,
2013-01-01 05:11:00,69.5,57.9,30.24,SW,215,3.2,3.2,66,0.00,,---,0.00,VWS V14.01,2013-01-01 10:11:00,
2013-01-01 05:14:00,69.3,57.6,30.25,SSW,208,2.1,3.5,66,0.00,,---,0.00,VWS V14.01,2013-01-01 10:14:00,
2013-01-01 05:15:00,69.3,57.6,30.24,SSW,212,2.9,2.9,66,0.00,,---,0.00,VWS V14.01,2013-01-01 10:15:00,
2013-01-01 05:16:00,69.4,57.7,30.24,South,177,2.9,4.5,66,0.00,,---,0.00,VWS V14.01,2013-01-01 10:16:00,
2013-01-01 05:19:00,69.3,57.6,30.24,SSW,201,1.2,3.9,66,0.00,,---,0.00,VWS V14.01,2013-01-01 10:19:00,
2013-01-01 05:20:00,69.1,57.4,30.24,SSW,198,1.8,3.5,66,0.00,,---,0.00,VWS V14.01,2013-01-01 10:20:00,
2013-01-01 05:21:00,69.2,57.6,30.24,SW,218,1.6,2.4,66,0.00,,---,0.00,VWS V14.01,2013-01-01 10:21:00,
2013-01-01 05:22:00,69.3,57.7,30.24,SW,222,3.5,3.5,66,0.00,,---,0.00,VWS V14.01,2013-01-01 10:22:00,
2013-01-01 05:24:00,69.0,57.5,30.24,South,191,1.7,2.7,67,0.00,,---,0.00,VWS V14.01,2013-01-01 10:24:00,
2013-01-01 05:25:00,69.1,57.6,30.24,SW,221,2.9,2.9,67,0.00,,---,0.00,VWS V14.01,2013-01-01 10:25:00,
2013-01-01 05:26:00,68.9,57.4,30.24,South,188,0.5,2.9,67,0.00,,---,0.00,VWS V14.01,2013-01-01 10:26:00,
2013-01-01 05:27:00,69.1,57.6,30.24,South,179,3.2,3.2,67,0.00,,---,0.00,VWS V14.01,2013-01-01 10:27:00,
2013-01-01 05:29:00,69.0,57.6,30.24,SSW,204,2.0,2.0,67,0.00,,---,0.00,VWS V14.01,2013-01-01 10:29:00,
2013-01-01 05:30:00,68.9,57.5,30.24,South,187,3.3,3.3,67,0.00,,---,0.00,VWS V14.01,2013-01-01 10:30:00,
2013-01-01 05:31:00,69.0,57.6,30.24,SW,217,1.4,1.5,67,0.00,,---,0.00,VWS V14.01,2013-01-01 10:31:00,
2013-01-01 05:32:00,68.8,57.5,30.24,SSE,162,0.6,1.6,67,0.00,,---,0.00,VWS V14.01,2013-01-01 10:32:00,
2013-01-01 05:34:00,68.9,57.6,30.24,South,170,0.0,0.7,67,0.00,,---,0.00,VWS V14.01,2013-01-01 10:34:00,
2013-01-01 05:36:00,68.7,57.4,30.24,South,170,0.0,0.0,67,0.00,,---,0.00,VWS V14.01,2013-01-01 10:36:00,
2013-01-01 05:37:00,68.7,57.5,30.24,South,190,1.1,1.4,67,0.00,,---,0.00,VWS V14.01,2013-01-01 10:37:00,
2013-01-01 05:39:00,68.7,57.6,30.24,SSW,211,1.5,1.6,68,0.00,,---,0.00,VWS V14.01,2013-01-01 10:39:00,
2013-01-01 05:41:00,68.7,57.6,30.24,SSE,163,0.0,0.0,68,0.00,,---,0.00,VWS V14.01,2013-01-01 10:41:00,
2013-01-01 05:42:00,68.7,57.6,30.24,SSE,163,0.0,0.0,68,0.00,,---,0.00,VWS V14.01,2013-01-01 10:42:00,
2013-01-01 05:44:00,68.7,57.7,30.24,South,184,0.0,0.0,68,0.00,,---,0.00,VWS V14.01,2013-01-01 10:44:00,
2013-01-01 05:46:00,68.7,57.7,30.24,South,184,0.0,0.0,68,0.00,,---,0.00,VWS V14.01,2013-01-01 10:46:00,
2013-01-01 05:47:00,68.7,57.7,30.24,South,184,0.0,0.0,68,0.00,,---,0.00,VWS V14.01,2013-01-01 10:47:00,
2013-01-01 05:49:00,68.6,57.6,30.24,South,184,0.0,0.0,68,0.00,,---,0.00,VWS V14.01,2013-01-01 10:49:00,
2013-01-01 05:51:00,68.7,57.8,30.24,South,184,0.0,0.0,68,0.00,,---,0.00,VWS V14.01,2013-01-01 10:51:00,
2013-01-01 05:52:00,68.8,57.9,30.24,South,184,0.0,0.0,68,0.00,,---,0.00,VWS V14.01,2013-01-01 10:52:00,
2013-01-01 05:55:00,68.7,57.8,30.23,South,184,0.0,0.0,68,0.00,,---,0.00,VWS V14.01,2013-01-01 10:55:00,
2013-01-01 05:56:00,68.8,58.2,30.23,South,186,3.0,3.4,69,0.00,,---,0.00,VWS V14.01,2013-01-01 10:56:00,
2013-01-01 05:57:00,68.6,58.2,30.23,South,188,3.7,3.9,69,0.00,,---,0.00,VWS V14.01,2013-01-01 10:57:00,
2013-01-01 06:00:00,68.8,58.6,30.23,SSW,207,1.6,2.2,70,0.00,,---,0.00,VWS V14.01,2013-01-01 11:00:00,
2013-01-01 06:01:00,69.0,59.1,30.23,SSW,193,4.3,4.6,71,0.00,,---,0.00,VWS V14.01,2013-01-01 11:01:00,
2013-01-01 06:02:00,69.2,59.4,30.24,SSW,195,5.3,5.7,71,0.00,,---,0.00,VWS V14.01,2013-01-01 11:02:00,
2013-01-01 06:05:00,69.4,59.8,30.23,South,173,2.1,4.7,71,0.00,,---,0.00,VWS V14.01,2013-01-01 11:05:00,
2013-01-01 06:06:00,69.3,59.6,30.23,SSW,204,2.4,3.4,71,0.00,,---,0.00,VWS V14.01,2013-01-01 11:06:00,
2013-01-01 06:07:00,69.5,59.9,30.23,South,190,3.3,4.0,72,0.00,,---,0.00,VWS V14.01,2013-01-01 11:07:00,
2013-01-01 06:10:00,69.7,60.1,30.23,SSW,211,6.0,7.5,72,0.00,,---,0.00,VWS V14.01,2013-01-01 11:10:00,
2013-01-01 06:11:00,69.7,60.0,30.23,South,173,3.9,3.9,71,0.00,,---,0.00,VWS V14.01,2013-01-01 11:11:00,
2013-01-01 06:12:00,70.0,60.3,30.23,South,181,2.2,2.5,71,0.00,,---,0.00,VWS V14.01,2013-01-01 11:12:00,
2013-01-01 06:15:00,69.9,60.2,30.23,SSW,198,4.0,6.2,71,0.00,,---,0.00,VWS V14.01,2013-01-01 11:15:00,
2013-01-01 06:16:00,70.2,60.4,30.23,SW,218,4.8,6.0,71,0.00,,---,0.00,VWS V14.01,2013-01-01 11:16:00,
2013-01-01 06:18:00,70.1,60.2,30.23,South,186,2.3,3.1,71,0.00,,---,0.00,VWS V14.01,2013-01-01 11:18:00,
2013-01-01 06:20:00,70.2,60.2,30.23,SSW,207,2.4,3.5,71,0.00,,---,0.00,VWS V14.01,2013-01-01 11:20:00,
2013-01-01 06:21:00,70.5,60.4,30.23,SSW,204,3.2,3.2,70,0.00,,---,0.00,VWS V14.01,2013-01-01 11:21:00,
2013-01-01 06:23:00,70.2,60.1,30.23,SSW,202,3.5,4.3,70,0.00,,---,0.00,VWS V14.01,2013-01-01 11:23:00,
2013-01-01 06:24:00,70.5,60.4,30.23,SSW,197,2.8,5.1,70,0.00,,---,0.00,VWS V14.01,2013-01-01 11:24:00,
2013-01-01 06:25:00,70.3,60.1,30.23,South,179,2.8,4.1,70,0.00,,---,0.00,VWS V14.01,2013-01-01 11:25:00,
2013-01-01 06:26:00,70.4,60.2,30.23,South,191,1.6,1.8,70,0.00,,---,0.00,VWS V14.01,2013-01-01 11:26:00,
2013-01-01 06:28:00,70.4,60.2,30.23,South,186,1.3,2.7,70,0.00,,---,0.00,VWS V14.01,2013-01-01 11:28:00,
2013-01-01 06:29:00,70.5,60.1,30.23,South,172,3.1,7.0,70,0.00,,---,0.00,VWS V14.01,2013-01-01 11:29:00,
2013-01-01 06:31:00,70.6,60.1,30.23,SSW,197,7.0,9.7,69,0.00,,---,0.00,VWS V14.01,2013-01-01 11:31:00,
2013-01-01 06:32:00,70.5,60.0,30.23,SSW,211,3.0,3.5,69,0.00,,---,0.00,VWS V14.01,2013-01-01 11:32:00,
2013-01-01 06:33:00,70.6,60.0,30.23,SSW,210,1.8,6.8,69,0.00,,---,0.00,VWS V14.01,2013-01-01 11:33:00,
2013-01-01 06:34:00,70.6,59.9,30.23,SSW,202,3.9,6.5,69,0.00,,---,0.00,VWS V14.01,2013-01-01 11:34:00,
2013-01-01 06:36:00,70.6,59.7,30.23,South,177,2.5,4.5,68,0.00,,---,0.00,VWS V14.01,2013-01-01 11:36:00,
2013-01-01 06:37:00,70.6,59.6,30.23,South,184,4.3,4.6,68,0.00,,---,0.00,VWS V14.01,2013-01-01 11:37:00,
2013-01-01 06:38:00,70.7,59.3,30.23,South,186,3.6,6.5,67,0.00,,---,0.00,VWS V14.01,2013-01-01 11:38:00,
2013-01-01 06:39:00,70.7,58.8,30.23,SSW,207,5.0,8.8,66,0.00,,---,0.00,VWS V14.01,2013-01-01 11:39:00,
2013-01-01 06:41:00,70.7,58.8,30.23,South,186,2.8,4.7,66,0.00,,---,0.00,VWS V14.01,2013-01-01 11:41:00,
2013-01-01 06:42:00,70.6,58.5,30.23,SSW,208,3.9,5.1,66,0.00,,---,0.00,VWS V14.01,2013-01-01 11:42:00,
2013-01-01 06:43:00,70.7,58.7,30.23,South,191,1.8,4.4,66,0.00,,---,0.00,VWS V14.01,2013-01-01 11:43:00,
2013-01-01 06:44:00,70.7,58.7,30.23,SSW,201,2.7,2.9,66,0.00,,---,0.00,VWS V14.01,2013-01-01 11:44:00,
2013-01-01 06:46:00,70.7,58.3,30.23,SSW,194,2.2,4.0,65,0.00,,---,0.00,VWS V14.01,2013-01-01 11:46:00,
2013-01-01 06:47:00,70.8,58.5,30.23,SSW,207,1.7,3.5,65,0.00,,---,0.00,VWS V14.01,2013-01-01 11:47:00,
2013-01-01 06:48:00,70.7,58.4,30.23,South,188,2.8,3.5,65,0.00,,---,0.00,VWS V14.01,2013-01-01 11:48:00,
2013-01-01 06:49:00,70.7,58.2,30.23,SE,127,1.3,5.5,64,0.00,,---,0.00,VWS V14.01,2013-01-01 11:49:00,
2013-01-01 06:51:00,70.6,57.8,30.23,South,183,3.2,3.5,64,0.00,,---,0.00,VWS V14.01,2013-01-01 11:51:00,
2013-01-01 06:52:00,70.9,57.8,30.23,SSW,201,4.9,6.3,63,0.00,,---,0.00,VWS V14.01,2013-01-01 11:52:00,
2013-01-01 06:53:00,70.8,57.8,30.23,SSE,159,2.1,4.9,63,0.00,,---,0.00,VWS V14.01,2013-01-01 11:53:00,
2013-01-01 06:54:00,70.7,57.5,30.23,SSE,155,4.1,5.4,63,0.00,,---,0.00,VWS V14.01,2013-01-01 11:54:00,
2013-01-01 06:56:00,70.7,57.7,30.23,South,170,3.0,3.0,63,0.00,,---,0.00,VWS V14.01,2013-01-01 11:56:00,
2013-01-01 06:57:00,70.8,57.7,30.23,SSW,210,2.7,2.7,63,0.00,,---,0.00,VWS V14.01,2013-01-01 11:57:00,
2013-01-01 06:58:00,70.9,57.7,30.24,South,179,3.4,3.8,63,0.00,,---,0.00,VWS V14.01,2013-01-01 11:58:00,
2013-01-01 06:59:00,70.7,57.2,30.24,SW,222,2.2,6.4,62,0.00,,---,0.00,VWS V14.01,2013-01-01 11:59:00,
2013-01-01 07:01:00,70.6,56.8,30.23,SSW,193,3.5,6.0,62,0.00,,---,0.00,VWS V14.01,2013-01-01 12:01:00,
2013-01-01 07:03:00,70.6,56.9,30.24,South,183,3.0,4.7,62,0.00,,---,0.00,VWS V14.01,2013-01-01 12:03:00,
2013-01-01 07:04:00,70.7,57.3,30.23,South,179,4.4,7.3,62,0.00,,---,0.00,VWS V14.01,2013-01-01 12:04:00,
2013-01-01 07:07:00,70.6,57.5,30.24,South,190,9.6,11.6,63,0.00,,---,0.00,VWS V14.01,2013-01-01 12:07:00,
2013-01-01 07:08:00,70.8,57.6,30.23,South,179,3.3,3.4,63,0.00,,---,0.00,VWS V14.01,2013-01-01 12:08:00,
2013-01-01 07:09:00,70.9,57.8,30.24,SSW,195,5.3,7.3,63,0.00,,---,0.00,VWS V14.01,2013-01-01 12:09:00,
2013-01-01 07:12:00,71.0,58.1,30.23,South,169,3.9,8.5,64,0.00,,---,0.00,VWS V14.01,2013-01-01 12:12:00,
2013-01-01 07:13:00,71.1,58.2,30.24,SSW,198,4.8,7.5,64,0.00,,---,0.00,VWS V14.01,2013-01-01 12:13:00,
2013-01-01 07:14:00,71.0,58.2,30.23,South,191,3.1,6.0,64,0.00,,---,0.00,VWS V14.01,2013-01-01 12:14:00,
2013-01-01 07:17:00,71.0,58.3,30.23,South,184,2.7,5.2,64,0.00,,---,0.00,VWS V14.01,2013-01-01 12:17:00,
2013-01-01 07:18:00,70.8,58.2,30.23,SSW,197,3.3,3.3,64,0.00,,---,0.00,VWS V14.01,2013-01-01 12:18:00,
2013-01-01 07:19:00,71.1,58.5,30.23,SSE,160,3.0,3.7,64,0.00,,---,0.00,VWS V14.01,2013-01-01 12:19:00,
2013-01-01 07:20:00,70.9,58.3,30.23,SSE,159,4.8,6.5,64,0.00,,---,0.00,VWS V14.01,2013-01-01 12:20:00,
2013-01-01 07:22:00,70.8,58.2,30.24,South,190,3.0,5.2,64,0.00,,---,0.00,VWS V14.01,2013-01-01 12:22:00,
2013-01-01 07:23:00,70.9,58.3,30.24,SSW,210,5.0,5.1,64,0.00,,---,0.00,VWS V14.01,2013-01-01 12:23:00,
2013-01-01 07:25:00,71.0,58.5,30.24,WSW,249,5.3,6.5,65,0.00,,---,0.00,VWS V14.01,2013-01-01 12:25:00,
2013-01-01 07:27:00,71.1,58.6,30.24,SSW,207,5.0,5.8,65,0.00,,---,0.00,VWS V14.01,2013-01-01 12:27:00,
2013-01-01 07:28:00,71.1,58.5,30.24,SSW,211,4.3,4.3,64,0.00,,---,0.00,VWS V14.01,2013-01-01 12:28:00,
2013-01-01 07:29:00,70.9,58.4,30.24,South,190,3.6,7.1,65,0.00,,---,0.00,VWS V14.01,2013-01-01 12:29:00,
2013-01-01 07:30:00,70.9,58.4,30.24,SSW,193,3.2,3.8,65,0.00,,---,0.00,VWS V14.01,2013-01-01 12:30:00,
2013-01-01 07:32:00,71.1,58.6,30.24,SSW,198,2.7,3.2,65,0.00,,---,0.00,VWS V14.01,2013-01-01 12:32:00,
2013-01-01 07:33:00,71.1,58.6,30.24,SSW,210,4.5,5.4,65,0.00,,---,0.00,VWS V14.01,2013-01-01 12:33:00,
2013-01-01 07:34:00,71.1,58.6,30.24,SSE,159,3.2,5.0,65,0.00,,---,0.00,VWS V14.01,2013-01-01 12:34:00,
2013-01-01 07:35:00,71.1,58.6,30.24,SW,229,5.3,5.3,65,0.00,,---,0.00,VWS V14.01,2013-01-01 12:35:00,
2013-01-01 07:38:00,71.1,58.6,30.24,SSW,201,7.3,8.0,65,0.00,,---,0.00,VWS V14.01,2013-01-01 12:38:00,
2013-01-01 07:39:00,71.3,58.8,30.24,South,188,4.2,4.2,65,0.00,,---,0.00,VWS V14.01,2013-01-01 12:39:00,
2013-01-01 07:40:00,71.3,58.8,30.24,South,187,1.9,3.5,65,0.00,,---,0.00,VWS V14.01,2013-01-01 12:40:00,
2013-01-01 07:43:00,71.0,58.6,30.24,South,181,6.0,6.2,65,0.00,,---,0.00,VWS V14.01,2013-01-01 12:43:00,
2013-01-01 07:44:00,71.1,58.6,30.24,SSW,195,3.6,6.0,65,0.00,,---,0.00,VWS V14.01,2013-01-01 12:44:00,
2013-01-01 07:45:00,71.1,58.6,30.24,SSE,166,1.8,6.3,65,0.00,,---,0.00,VWS V14.01,2013-01-01 12:45:00,
2013-01-01 07:48:00,71.2,58.6,30.24,SSW,205,6.1,7.5,64,0.00,,---,0.00,VWS V14.01,2013-01-01 12:48:00,
2013-01-01 07:49:00,71.3,58.7,30.24,South,184,3.0,6.3,64,0.00,,---,0.00,VWS V14.01,2013-01-01 12:49:00,
2013-01-01 07:50:00,71.1,58.4,30.24,South,181,4.5,5.5,64,0.00,,---,0.00,VWS V14.01,2013-01-01 12:50:00,
2013-01-01 07:54:00,71.1,58.2,30.24,SSW,193,3.2,8.5,64,0.00,,---,0.00,VWS V14.01,2013-01-01 12:54:00,
2013-01-01 07:56:00,71.4,58.6,30.24,SSW,212,3.2,4.8,64,0.00,,---,0.00,VWS V14.01,2013-01-01 12:56:00,
2013-01-01 07:59:00,71.5,58.7,30.24,South,181,5.2,5.2,64,0.00,,---,0.00,VWS V14.01,2013-01-01 12:59:00,
2013-01-01 08:01:00,71.4,58.7,30.24,SSW,200,6.3,9.3,64,0.00,,---,0.00,VWS V14.01,2013-01-01 13:01:00,
2013-01-01 08:04:00,71.3,58.3,30.24,SSW,195,7.1,11.6,64,0.00,,---,0.00,VWS V14.01,2013-01-01 13:04:00,
2013-01-01 08:06:00,71.4,58.3,30.24,SSW,208,4.5,6.2,63,0.00,,---,0.00,VWS V14.01,2013-01-01 13:06:00,
2013-01-01 08:09:00,71.5,58.5,30.24,South,191,7.0,7.0,64,0.00,,---,0.00,VWS V14.01,2013-01-01 13:09:00,
2013-01-01 08:11:00,71.6,58.6,30.23,SSW,210,5.3,5.3,64,0.00,,---,0.00,VWS V14.01,2013-01-01 13:11:00,
2013-01-01 08:14:00,72.0,58.9,30.24,SSE,149,4.5,6.5,63,0.00,,---,0.00,VWS V14.01,2013-01-01 13:14:00,
2013-01-01 08:16:00,72.0,58.6,30.24,SSW,202,3.5,8.6,63,0.00,,---,0.00,VWS V14.01,2013-01-01 13:16:00,
2013-01-01 08:19:00,72.4,58.8,30.24,SSW,201,8.0,8.0,62,0.00,,---,0.00,VWS V14.01,2013-01-01 13:19:00,
2013-01-01 08:20:00,72.4,58.7,30.24,South,186,3.8,8.6,62,0.00,,---,0.00,VWS V14.01,2013-01-01 13:20:00,
2013-01-01 08:21:00,72.5,58.8,30.24,SSW,201,9.6,10.3,62,0.00,,---,0.00,VWS V14.01,2013-01-01 13:21:00,
2013-01-01 08:24:00,72.9,58.7,30.24,South,190,2.3,2.9,61,0.00,,---,0.00,VWS V14.01,2013-01-01 13:24:00,
2013-01-01 08:25:00,73.0,58.9,30.24,SSW,195,4.2,4.7,61,0.00,,---,0.00,VWS V14.01,2013-01-01 13:25:00,
2013-01-01 08:26:00,73.0,58.6,30.24,SSW,193,3.3,7.8,61,0.00,,---,0.00,VWS V14.01,2013-01-01 13:26:00,
2013-01-01 08:30:00,73.3,58.6,30.24,SW,214,5.7,5.7,60,0.00,,---,0.00,VWS V14.01,2013-01-01 13:30:00,
2013-01-01 08:31:00,73.3,58.3,30.24,SSE,152,3.2,8.9,59,0.00,,---,0.00,VWS V14.01,2013-01-01 13:31:00,
2013-01-01 08:35:00,73.5,58.5,30.24,South,174,4.3,5.1,59,0.00,,---,0.00,VWS V14.01,2013-01-01 13:35:00,
2013-01-01 08:36:00,73.5,58.3,30.24,SSW,211,5.3,5.3,59,0.00,,---,0.00,VWS V14.01,2013-01-01 13:36:00,
2013-01-01 08:40:00,73.6,57.3,30.25,SSW,194,10.1,12.8,57,0.00,,---,0.00,VWS V14.01,2013-01-01 13:40:00,
2013-01-01 08:41:00,73.7,57.4,30.25,SW,214,6.8,8.9,57,0.00,,---,0.00,VWS V14.01,2013-01-01 13:41:00,
2013-01-01 08:42:00,73.6,57.4,30.25,SSW,197,3.8,5.3,57,0.00,,---,0.00,VWS V14.01,2013-01-01 13:42:00,
2013-01-01 08:45:00,73.7,57.5,30.25,SSW,202,4.1,5.8,57,0.00,,---,0.00,VWS V14.01,2013-01-01 13:45:00,
2013-01-01 08:46:00,73.7,57.7,30.25,SSW,204,3.6,3.7,57,0.00,,---,0.00,VWS V14.01,2013-01-01 13:46:00,
2013-01-01 08:47:00,73.7,57.7,30.25,SSE,155,2.5,4.4,57,0.00,,---,0.00,VWS V14.01,2013-01-01 13:47:00,
2013-01-01 08:50:00,73.8,57.7,30.25,SW,214,7.7,8.3,57,0.00,,---,0.00,VWS V14.01,2013-01-01 13:50:00,
2013-01-01 08:51:00,73.9,57.7,30.25,South,191,6.8,8.4,57,0.00,,---,0.00,VWS V14.01,2013-01-01 13:51:00,
2013-01-01 08:52:00,73.9,57.7,30.25,SW,221,10.4,10.4,57,0.00,,---,0.00,VWS V14.01,2013-01-01 13:52:00,
2013-01-01 08:55:00,73.7,57.7,30.25,SSW,207,6.8,6.8,57,0.00,,---,0.00,VWS V14.01,2013-01-01 13:55:00,
2013-01-01 08:56:00,73.8,57.6,30.25,SSE,165,6.4,12.9,57,0.00,,---,0.00,VWS V14.01,2013-01-01 13:56:00,
2013-01-01 08:57:00,73.6,57.5,30.25,South,179,3.0,6.6,57,0.00,,---,0.00,VWS V14.01,2013-01-01 13:57:00,
2013-01-01 09:00:00,73.5,57.8,30.25,SSW,212,8.5,8.5,58,0.00,,---,0.00,VWS V14.01,2013-01-01 14:00:00,
2013-01-01 09:01:00,73.5,57.7,30.25,SSW,193,3.1,6.8,58,0.00,,---,0.00,VWS V14.01,2013-01-01 14:01:00,
2013-01-01 09:02:00,73.5,57.8,30.25,SW,225,4.7,6.1,58,0.00,,---,0.00,VWS V14.01,2013-01-01 14:02:00,
2013-01-01 09:05:00,73.8,57.7,30.25,SSW,198,7.5,12.1,57,0.00,,---,0.00,VWS V14.01,2013-01-01 14:05:00,
2013-01-01 09:06:00,74.0,57.9,30.25,SSW,202,7.3,12.2,57,0.00,,---,0.00,VWS V14.01,2013-01-01 14:06:00,
2013-01-01 09:07:00,73.8,57.6,30.25,South,180,5.1,9.9,57,0.00,,---,0.00,VWS V14.01,2013-01-01 14:07:00,
2013-01-01 09:10:00,74.1,57.7,30.25,SSW,200,7.6,11.5,56,0.00,,---,0.00,VWS V14.01,2013-01-01 14:10:00,
2013-01-01 09:11:00,74.0,57.6,30.25,South,187,8.0,9.6,56,0.00,,---,0.00,VWS V14.01,2013-01-01 14:11:00,
2013-01-01 09:12:00,74.2,57.8,30.25,SSW,205,4.9,9.0,57,0.00,,---,0.00,VWS V14.01,2013-01-01 14:12:00,
2013-01-01 09:15:00,74.5,57.9,30.25,South,177,4.6,10.3,56,0.00,,---,0.00,VWS V14.01,2013-01-01 14:15:00,
2013-01-01 09:16:00,74.3,57.8,30.25,SW,215,6.2,6.3,56,0.00,,---,0.00,VWS V14.01,2013-01-01 14:16:00,
2013-01-01 09:17:00,74.5,57.8,30.25,SW,233,6.2,10.2,56,0.00,,---,0.00,VWS V14.01,2013-01-01 14:17:00,
2013-01-01 09:20:00,74.6,57.6,30.25,SW,219,7.5,10.9,55,0.00,,---,0.00,VWS V14.01,2013-01-01 14:20:00,
2013-01-01 09:21:00,74.7,58.0,30.25,SSW,193,3.7,4.8,56,0.00,,---,0.00,VWS V14.01,2013-01-01 14:21:00,
2013-01-01 09:22:00,74.8,58.0,30.25,South,177,3.7,4.8,56,0.00,,---,0.00,VWS V14.01,2013-01-01 14:22:00,
2013-01-01 09:25:00,74.9,57.6,30.25,SSW,200,6.6,14.9,55,0.00,,---,0.00,VWS V14.01,2013-01-01 14:25:00,
2013-01-01 09:26:00,74.9,57.6,30.25,South,183,4.2,7.5,55,0.00,,---,0.00,VWS V14.01,2013-01-01 14:26:00,
2013-01-01 09:27:00,74.9,57.8,30.25,SSW,198,5.2,8.5,55,0.00,,---,0.00,VWS V14.01,2013-01-01 14:27:00,
2013-01-01 09:30:00,74.9,58.1,30.25,South,188,7.0,9.4,56,0.00,,---,0.00,VWS V14.01,2013-01-01 14:30:00,
2013-01-01 09:31:00,74.7,57.8,30.25,SSW,202,7.7,9.4,56,0.00,,---,0.00,VWS V14.01,2013-01-01 14:31:00,
2013-01-01 09:32:00,74.8,58.1,30.25,South,183,4.7,11.2,56,0.00,,---,0.00,VWS V14.01,2013-01-01 14:32:00,
2013-01-01 09:35:00,75.0,58.0,30.25,SSW,200,0.9,8.7,56,0.00,,---,0.00,VWS V14.01,2013-01-01 14:35:00,
2013-01-01 09:36:00,74.9,58.1,30.25,SSW,193,1.7,2.7,56,0.00,,---,0.00,VWS V14.01,2013-01-01 14:36:00,
2013-01-01 09:37:00,75.2,58.2,30.25,South,191,4.2,5.0,56,0.00,,---,0.00,VWS V14.01,2013-01-01 14:37:00,
2013-01-01 09:40:00,75.0,57.5,30.25,SSW,208,4.8,8.0,54,0.00,,---,0.00,VWS V14.01,2013-01-01 14:40:00,
2013-01-01 09:41:00,75.3,58.0,30.25,SW,228,3.2,8.0,55,0.00,,---,0.00,VWS V14.01,2013-01-01 14:41:00,
2013-01-01 09:42:00,75.1,57.9,30.25,SSW,205,7.5,7.5,55,0.00,,---,0.00,VWS V14.01,2013-01-01 14:42:00,
2013-01-01 09:45:00,75.0,58.0,30.25,SSW,197,4.7,6.3,55,0.00,,---,0.00,VWS V14.01,2013-01-01 14:45:00,
2013-01-01 09:46:00,74.9,57.8,30.25,WSW,239,4.1,9.3,55,0.00,,---,0.00,VWS V14.01,2013-01-01 14:46:00,
2013-01-01 09:48:00,74.9,58.0,30.25,SSW,201,5.0,7.6,56,0.00,,---,0.00,VWS V14.01,2013-01-01 14:48:00,
2013-01-01 09:50:00,74.9,57.9,30.25,South,183,7.5,8.4,56,0.00,,---,0.00,VWS V14.01,2013-01-01 14:50:00,
2013-01-01 09:51:00,74.9,58.0,30.24,SW,218,5.8,8.4,56,0.00,,---,0.00,VWS V14.01,2013-01-01 14:51:00,
2013-01-01 09:53:00,75.1,57.8,30.24,SW,217,5.3,11.9,55,0.00,,---,0.00,VWS V14.01,2013-01-01 14:53:00,
2013-01-01 09:56:00,75.5,58.1,30.25,SSW,212,4.7,6.6,55,0.00,,---,0.00,VWS V14.01,2013-01-01 14:56:00,
2013-01-01 09:58:00,75.7,58.5,30.25,SSW,202,4.6,6.6,55,0.00,,---,0.00,VWS V14.01,2013-01-01 14:58:00,
2013-01-01 10:01:00,75.9,58.3,30.25,SW,217,7.1,11.6,54,0.00,,---,0.00,VWS V14.01,2013-01-01 15:01:00,
2013-01-01 10:03:00,76.0,58.4,30.25,SSW,194,3.4,8.6,54,0.00,,---,0.00,VWS V14.01,2013-01-01 15:03:00,
2013-01-01 10:06:00,76.0,58.1,30.24,SSW,204,8.5,13.0,54,0.00,,---,0.00,VWS V14.01,2013-01-01 15:06:00,
2013-01-01 10:07:00,76.0,58.3,30.24,SSE,153,10.0,13.7,54,0.00,,---,0.00,VWS V14.01,2013-01-01 15:07:00,
2013-01-01 10:08:00,75.7,58.0,30.25,SSW,208,7.6,12.1,54,0.00,,---,0.00,VWS V14.01,2013-01-01 15:08:00,
2013-01-01 10:11:00,75.3,58.4,30.25,West,269,4.3,10.4,56,0.00,,---,0.00,VWS V14.01,2013-01-01 15:11:00,
2013-01-01 10:12:00,75.4,58.6,30.25,NNW,338,1.9,4.7,56,0.00,,---,0.00,VWS V14.01,2013-01-01 15:12:00,
2013-01-01 10:13:00,75.5,58.5,30.24,South,190,8.3,10.4,56,0.00,,---,0.00,VWS V14.01,2013-01-01 15:13:00,
2013-01-01 10:16:00,75.7,58.7,30.24,South,188,4.8,8.4,56,0.00,,---,0.00,VWS V14.01,2013-01-01 15:16:00,
2013-01-01 10:17:00,75.7,58.5,30.24,SSW,194,12.1,12.1,55,0.00,,---,0.00,VWS V14.01,2013-01-01 15:17:00,
2013-01-01 10:18:00,75.8,58.5,30.24,South,174,7.3,13.4,55,0.00,,---,0.00,VWS V14.01,2013-01-01 15:18:00,
2013-01-01 10:21:00,76.0,58.6,30.24,SW,235,9.1,11.9,55,0.00,,---,0.00,VWS V14.01,2013-01-01 15:21:00,
2013-01-01 10:22:00,76.0,58.3,30.24,SSW,200,8.0,13.0,54,0.00,,---,0.00,VWS V14.01,2013-01-01 15:22:00,
2013-01-01 10:23:00,76.0,58.0,30.24,South,177,3.4,11.1,54,0.00,,---,0.00,VWS V14.01,2013-01-01 15:23:00,
2013-01-01 10:26:00,76.2,58.4,30.24,SSW,202,4.7,10.9,54,0.00,,---,0.00,VWS V14.01,2013-01-01 15:26:00,
2013-01-01 10:27:00,76.3,58.1,30.24,South,172,10.0,10.3,53,0.00,,---,0.00,VWS V14.01,2013-01-01 15:27:00,
2013-01-01 10:28:00,76.2,57.8,30.24,South,177,13.7,17.3,53,0.00,,---,0.00,VWS V14.01,2013-01-01 15:28:00,
2013-01-01 10:31:00,76.2,58.2,30.24,SW,221,9.8,15.4,54,0.00,,---,0.00,VWS V14.01,2013-01-01 15:31:00,
2013-01-01 10:32:00,76.1,58.2,30.24,South,186,5.7,13.6,54,0.00,,---,0.00,VWS V14.01,2013-01-01 15:32:00,
2013-01-01 10:33:00,76.1,58.3,30.23,SSW,197,11.7,12.7,54,0.00,,---,0.00,VWS V14.01,2013-01-01 15:33:00,
2013-01-01 10:36:00,76.0,58.2,30.24,SW,222,5.3,16.8,54,0.00,,---,0.00,VWS V14.01,2013-01-01 15:36:00,
2013-01-01 10:37:00,75.9,58.1,30.24,SSW,211,8.5,8.5,54,0.00,,---,0.00,VWS V14.01,2013-01-01 15:37:00,
2013-01-01 10:39:00,75.9,58.6,30.24,SSW,202,9.2,9.4,55,0.00,,---,0.00,VWS V14.01,2013-01-01 15:39:00,
2013-01-01 10:41:00,75.8,58.1,30.24,SW,229,5.0,16.9,54,0.00,,---,0.00,VWS V14.01,2013-01-01 15:41:00,
2013-01-01 10:42:00,76.1,58.6,30.24,SW,214,3.7,6.0,55,0.00,,---,0.00,VWS V14.01,2013-01-01 15:42:00,
2013-01-01 10:44:00,76.2,58.7,30.24,South,187,4.1,8.3,55,0.00,,---,0.00,VWS V14.01,2013-01-01 15:44:00,
2013-01-01 10:47:00,76.3,58.3,30.24,South,174,11.0,16.8,54,0.00,,---,0.00,VWS V14.01,2013-01-01 15:47:00,
2013-01-01 10:49:00,76.4,58.3,30.23,South,169,1.2,5.7,54,0.00,,---,0.00,VWS V14.01,2013-01-01 15:49:00,
2013-01-01 10:52:00,76.7,58.8,30.24,SW,221,4.0,9.9,54,0.00,,---,0.00,VWS V14.01,2013-01-01 15:52:00,
2013-01-01 10:54:00,76.7,58.8,30.24,SSW,197,8.7,10.1,54,0.00,,---,0.00,VWS V14.01,2013-01-01 15:54:00,
2013-01-01 10:57:00,77.0,58.6,30.24,SW,228,5.5,12.9,53,0.00,,---,0.00,VWS V14.01,2013-01-01 15:57:00,
2013-01-01 10:59:00,76.6,58.8,30.24,SW,214,10.3,12.2,54,0.00,,---,0.00,VWS V14.01,2013-01-01 15:59:00,
2013-01-01 11:02:00,76.4,59.1,30.24,SSW,201,8.3,9.1,55,0.00,,---,0.00,VWS V14.01,2013-01-01 16:02:00,
2013-01-01 11:04:00,76.4,59.0,30.24,SSE,166,10.9,14.5,55,0.00,,---,0.00,VWS V14.01,2013-01-01 16:04:00,
2013-01-01 11:07:00,76.4,58.8,30.24,South,177,3.0,9.7,54,0.00,,---,0.00,VWS V14.01,2013-01-01 16:07:00,
2013-01-01 11:09:00,76.5,58.9,30.24,SSW,201,5.9,8.0,54,0.00,,---,0.00,VWS V14.01,2013-01-01 16:09:00,
2013-01-01 11:12:00,76.4,59.0,30.24,SSW,208,6.7,9.9,55,0.00,,---,0.00,VWS V14.01,2013-01-01 16:12:00,
2013-01-01 11:14:00,76.5,59.5,30.24,SW,214,6.0,9.4,56,0.00,,---,0.00,VWS V14.01,2013-01-01 16:14:00,
2013-01-01 11:17:00,76.6,59.1,30.24,SSW,208,9.6,9.7,55,0.00,,---,0.00,VWS V14.01,2013-01-01 16:17:00,
2013-01-01 11:18:00,76.4,59.0,30.24,South,188,9.7,14.2,55,0.00,,---,0.00,VWS V14.01,2013-01-01 16:18:00,
2013-01-01 11:19:00,76.4,59.3,30.24,SW,215,9.6,11.5,55,0.00,,---,0.00,VWS V14.01,2013-01-01 16:19:00,
2013-01-01 11:22:00,76.3,59.3,30.23,WNW,283,3.7,9.9,56,0.00,,---,0.00,VWS V14.01,2013-01-01 16:22:00,
2013-01-01 11:23:00,76.4,59.4,30.23,SW,222,3.9,9.2,56,0.00,,---,0.00,VWS V14.01,2013-01-01 16:23:00,
2013-01-01 11:24:00,76.8,59.3,30.23,SSW,195,8.1,8.1,55,0.00,,---,0.00,VWS V14.01,2013-01-01 16:24:00,
2013-01-01 11:28:00,77.3,58.8,30.24,SSE,163,5.8,9.0,53,0.00,,---,0.00,VWS V14.01,2013-01-01 16:28:00,
2013-01-01 11:29:00,77.1,58.7,30.23,SSW,201,8.1,12.6,53,0.00,,---,0.00,VWS V14.01,2013-01-01 16:29:00,
2013-01-01 11:33:00,76.2,59.2,30.23,SSW,197,9.6,10.4,56,0.00,,---,0.00,VWS V14.01,2013-01-01 16:33:00,
2013-01-01 11:34:00,76.2,59.5,30.23,SSW,200,6.4,10.3,56,0.00,,---,0.00,VWS V14.01,2013-01-01 16:34:00,
2013-01-01 11:38:00,76.2,59.4,30.23,SW,215,6.5,9.6,56,0.00,,---,0.00,VWS V14.01,2013-01-01 16:38:00,
2013-01-01 11:39:00,76.2,59.2,30.23,SSW,198,6.8,8.0,56,0.00,,---,0.00,VWS V14.01,2013-01-01 16:39:00,
2013-01-01 11:43:00,75.8,59.3,30.23,SSW,194,6.6,13.0,57,0.00,,---,0.00,VWS V14.01,2013-01-01 16:43:00,
2013-01-01 11:44:00,75.9,59.7,30.23,SW,236,9.4,10.9,57,0.00,,---,0.00,VWS V14.01,2013-01-01 16:44:00,
2013-01-01 11:48:00,76.3,59.1,30.23,SSW,208,10.3,14.8,55,0.00,,---,0.00,VWS V14.01,2013-01-01 16:48:00,
2013-01-01 11:49:00,76.2,59.0,30.23,SSW,207,7.6,12.1,55,0.00,,---,0.00,VWS V14.01,2013-01-01 16:49:00,
2013-01-01 11:53:00,76.6,59.3,30.22,SW,225,4.9,8.1,55,0.00,,---,0.00,VWS V14.01,2013-01-01 16:53:00,
2013-01-01 11:55:00,77.1,59.7,30.22,SSW,195,4.8,7.0,55,0.00,,---,0.00,VWS V14.01,2013-01-01 16:55:00,
2013-01-01 11:58:00,76.9,59.5,30.21,South,181,5.5,9.6,55,0.00,,---,0.00,VWS V14.01,2013-01-01 16:58:00,
2013-01-01 12:00:00,76.8,59.8,30.21,West,262,2.4,5.6,56,0.00,,---,0.00,VWS V14.01,2013-01-01 17:00:00,
2013-01-01 12:03:00,76.3,59.1,30.21,South,169,9.6,18.5,55,0.00,,---,0.00,VWS V14.01,2013-01-01 17:03:00,
2013-01-01 12:05:00,76.0,59.4,30.21,SW,217,4.4,13.7,56,0.00,,---,0.00,VWS V14.01,2013-01-01 17:05:00,
2013-01-01 12:08:00,76.4,59.9,30.20,South,186,5.7,5.7,57,0.00,,---,0.00,VWS V14.01,2013-01-01 17:08:00,
2013-01-01 12:10:00,76.7,59.7,30.20,SW,232,8.6,10.4,56,0.00,,---,0.00,VWS V14.01,2013-01-01 17:10:00,
2013-01-01 12:13:00,77.1,58.8,30.20,SW,219,10.1,13.2,53,0.00,,---,0.00,VWS V14.01,2013-01-01 17:13:00,
2013-01-01 12:15:00,77.2,58.9,30.20,SSW,205,12.1,12.1,53,0.00,,---,0.00,VWS V14.01,2013-01-01 17:15:00,
2013-01-01 12:18:00,77.0,59.1,30.20,SSW,211,5.1,11.3,54,0.00,,---,0.00,VWS V14.01,2013-01-01 17:18:00,
2013-01-01 12:19:00,76.9,58.8,30.20,SW,214,10.6,17.5,54,0.00,,---,0.00,VWS V14.01,2013-01-01 17:19:00,
2013-01-01 12:20:00,76.8,58.7,30.20,South,187,9.5,14.8,54,0.00,,---,0.00,VWS V14.01,2013-01-01 17:20:00,
2013-01-01 12:23:00,76.9,58.8,30.19,South,174,11.3,11.3,54,0.00,,---,0.00,VWS V14.01,2013-01-01 17:23:00,
2013-01-01 12:24:00,76.9,59.0,30.19,South,186,6.0,11.3,54,0.00,,---,0.00,VWS V14.01,2013-01-01 17:24:00,
2013-01-01 12:25:00,77.2,59.1,30.19,SSW,198,8.0,9.5,54,0.00,,---,0.00,VWS V14.01,2013-01-01 17:25:00,
2013-01-01 12:28:00,77.4,59.4,30.19,South,186,5.3,6.6,54,0.00,,---,0.00,VWS V14.01,2013-01-01 17:28:00,
2013-01-01 12:29:00,77.2,59.2,30.19,SW,225,4.0,6.6,54,0.00,,---,0.00,VWS V14.01,2013-01-01 17:29:00,
2013-01-01 12:30:00,77.3,59.6,30.19,SW,222,7.7,16.3,54,0.00,,---,0.00,VWS V14.01,2013-01-01 17:30:00,
2013-01-01 12:34:00,76.8,59.2,30.19,WSW,242,4.8,7.0,55,0.00,,---,0.00,VWS V14.01,2013-01-01 17:34:00,
2013-01-01 12:35:00,77.0,59.8,30.18,SSW,212,5.5,6.3,55,0.00,,---,0.00,VWS V14.01,2013-01-01 17:35:00,
2013-01-01 12:39:00,76.7,59.8,30.18,NW,323,4.1,8.7,56,0.00,,---,0.00,VWS V14.01,2013-01-01 17:39:00,
2013-01-01 12:41:00,76.7,59.7,30.19,SSW,198,12.5,17.5,56,0.00,,---,0.00,VWS V14.01,2013-01-01 17:41:00,
2013-01-01 12:44:00,76.9,59.6,30.18,SSW,194,9.9,9.9,55,0.00,,---,0.00,VWS V14.01,2013-01-01 17:44:00,
2013-01-01 12:46:00,76.5,59.8,30.18,SW,224,7.4,15.3,56,0.00,,---,0.00,VWS V14.01,2013-01-01 17:46:00,
2013-01-01 12:49:00,76.5,59.3,30.18,SSW,208,5.6,11.4,55,0.00,,---,0.00,VWS V14.01,2013-01-01 17:49:00,
2013-01-01 12:51:00,76.6,59.0,30.18,SW,214,11.6,14.9,55,0.00,,---,0.00,VWS V14.01,2013-01-01 17:51:00,
2013-01-01 12:54:00,76.9,59.3,30.18,SSW,210,6.1,7.6,55,0.00,,---,0.00,VWS V14.01,2013-01-01 17:54:00,
2013-01-01 12:56:00,76.9,59.2,30.18,SSW,200,4.8,9.0,54,0.00,,---,0.00,VWS V14.01,2013-01-01 17:56:00,
2013-01-01 12:59:00,77.3,59.2,30.18,SW,221,6.6,12.9,54,0.00,,---,0.00,VWS V14.01,2013-01-01 17:59:00,
2013-01-01 13:01:00,77.2,59.2,30.18,SSW,208,11.6,16.5,54,0.00,,---,0.00,VWS V14.01,2013-01-01 18:01:00,
2013-01-01 13:04:00,77.3,59.7,30.18,WSW,250,4.3,10.5,55,0.00,,---,0.00,VWS V14.01,2013-01-01 18:04:00,
2013-01-01 13:06:00,77.3,59.5,30.18,South,187,9.0,9.0,54,0.00,,---,0.00,VWS V14.01,2013-01-01 18:06:00,
2013-01-01 13:09:00,77.3,59.5,30.18,SW,214,7.8,12.2,54,0.00,,---,0.00,VWS V14.01,2013-01-01 18:09:00,
2013-01-01 13:11:00,77.4,59.8,30.18,SW,219,5.6,7.5,55,0.00,,---,0.00,VWS V14.01,2013-01-01 18:11:00,
2013-01-01 13:14:00,77.2,59.3,30.18,WNW,294,4.4,12.6,54,0.00,,---,0.00,VWS V14.01,2013-01-01 18:14:00,
2013-01-01 13:15:00,77.3,59.4,30.18,SW,226,6.8,6.8,54,0.00,,---,0.00,VWS V14.01,2013-01-01 18:15:00,
2013-01-01 13:16:00,77.2,59.3,30.17,SSW,201,4.5,12.4,54,0.00,,---,0.00,VWS V14.01,2013-01-01 18:16:00,
2013-01-01 13:19:00,77.2,59.3,30.17,SW,232,7.8,9.4,54,0.00,,---,0.00,VWS V14.01,2013-01-01 18:19:00,
2013-01-01 13:20:00,77.0,59.2,30.17,WSW,250,6.0,8.9,54,0.00,,---,0.00,VWS V14.01,2013-01-01 18:20:00,
2013-01-01 13:21:00,77.2,59.7,30.17,South,177,3.6,9.1,55,0.00,,---,0.00,VWS V14.01,2013-01-01 18:21:00,
2013-01-01 13:24:00,77.3,59.5,30.17,SSW,207,8.2,11.9,54,0.00,,---,0.00,VWS V14.01,2013-01-01 18:24:00,
2013-01-01 13:25:00,77.7,60.1,30.17,SSW,205,7.4,9.8,55,0.00,,---,0.00,VWS V14.01,2013-01-01 18:25:00,
2013-01-01 13:26:00,77.7,59.4,30.17,SW,226,8.7,14.7,53,0.00,,---,0.00,VWS V14.01,2013-01-01 18:26:00,
2013-01-01 13:29:00,77.5,59.5,30.17,South,184,4.5,6.6,54,0.00,,---,0.00,VWS V14.01,2013-01-01 18:29:00,
2013-01-01 13:30:00,77.4,59.3,30.17,SW,214,6.3,6.8,54,0.00,,---,0.00,VWS V14.01,2013-01-01 18:30:00,
2013-01-01 13:31:00,77.5,59.2,30.17,SW,224,8.3,8.8,53,0.00,,---,0.00,VWS V14.01,2013-01-01 18:31:00,
2013-01-01 13:34:00,77.4,59.3,30.17,WSW,246,2.8,4.5,54,0.00,,---,0.00,VWS V14.01,2013-01-01 18:34:00,
2013-01-01 13:35:00,77.4,59.4,30.17,SW,218,6.3,6.3,54,0.00,,---,0.00,VWS V14.01,2013-01-01 18:35:00,
2013-01-01 13:36:00,77.3,59.3,30.17,South,191,9.5,9.5,54,0.00,,---,0.00,VWS V14.01,2013-01-01 18:36:00,
2013-01-01 13:39:00,77.1,59.3,30.16,West,260,4.0,5.0,54,0.00,,---,0.00,VWS V14.01,2013-01-01 18:39:00,
2013-01-01 13:40:00,76.9,58.9,30.16,SW,218,8.6,14.7,54,0.00,,---,0.00,VWS V14.01,2013-01-01 18:40:00,
2013-01-01 13:41:00,77.0,59.2,30.16,SSW,210,9.4,10.6,54,0.00,,---,0.00,VWS V14.01,2013-01-01 18:41:00,
2013-01-01 13:45:00,77.1,59.3,30.17,SSW,195,4.2,5.5,54,0.00,,---,0.00,VWS V14.01,2013-01-01 18:45:00,
2013-01-01 13:46:00,77.3,59.5,30.17,SW,228,6.6,7.1,54,0.00,,---,0.00,VWS V14.01,2013-01-01 18:46:00,
2013-01-01 13:50:00,77.8,59.7,30.16,SSW,207,4.0,5.2,54,0.00,,---,0.00,VWS V14.01,2013-01-01 18:50:00,
2013-01-01 13:51:00,77.9,59.8,30.16,WNW,295,1.5,7.5,54,0.00,,---,0.00,VWS V14.01,2013-01-01 18:51:00,
2013-01-01 13:55:00,77.9,59.4,30.16,SSW,205,8.8,8.9,53,0.00,,---,0.00,VWS V14.01,2013-01-01 18:55:00,
2013-01-01 13:56:00,78.0,59.8,30.16,SW,219,5.2,9.9,54,0.00,,---,0.00,VWS V14.01,2013-01-01 18:56:00,
2013-01-01 14:00:00,77.4,59.2,30.16,SW,215,9.2,9.9,53,0.00,,---,0.00,VWS V14.01,2013-01-01 19:00:00,
2013-01-01 14:01:00,77.5,59.5,30.16,SSW,208,7.6,8.3,54,0.00,,---,0.00,VWS V14.01,2013-01-01 19:01:00,
2013-01-01 14:05:00,76.8,59.5,30.16,South,184,4.9,11.2,55,0.00,,---,0.00,VWS V14.01,2013-01-01 19:05:00,
2013-01-01 14:06:00,76.8,59.5,30.16,SSW,201,9.7,9.7,55,0.00,,---,0.00,VWS V14.01,2013-01-01 19:06:00,
2013-01-01 14:10:00,77.1,60.1,30.15,South,191,6.0,6.6,56,0.00,,---,0.00,VWS V14.01,2013-01-01 19:10:00,
2013-01-01 14:11:00,77.0,59.6,30.15,SW,228,4.2,7.8,55,0.00,,---,0.00,VWS V14.01,2013-01-01 19:11:00,
2013-01-01 14:15:00,77.4,59.5,30.16,South,177,2.2,7.9,54,0.00,,---,0.00,VWS V14.01,2013-01-01 19:15:00,
2013-01-01 14:16:00,77.3,59.4,30.16,SSE,160,1.9,4.9,54,0.00,,---,0.00,VWS V14.01,2013-01-01 19:16:00,
2013-01-01 14:20:00,77.1,59.3,30.16,SSW,205,4.8,11.1,54,0.00,,---,0.00,VWS V14.01,2013-01-01 19:20:00,
2013-01-01 14:21:00,77.2,59.4,30.16,South,186,4.0,6.2,54,0.00,,---,0.00,VWS V14.01,2013-01-01 19:21:00,
2013-01-01 14:22:00,77.1,59.4,30.15,South,191,5.5,8.6,54,0.00,,---,0.00,VWS V14.01,2013-01-01 19:22:00,
2013-01-01 14:25:00,76.6,59.4,30.15,SW,224,5.0,10.2,55,0.00,,---,0.00,VWS V14.01,2013-01-01 19:25:00,
2013-01-01 14:26:00,76.9,59.8,30.15,SSW,201,12.2,12.2,56,0.00,,---,0.00,VWS V14.01,2013-01-01 19:26:00,
2013-01-01 14:27:00,76.7,59.6,30.15,SSW,205,11.9,11.9,56,0.00,,---,0.00,VWS V14.01,2013-01-01 19:27:00,
2013-01-01 14:30:00,77.2,59.4,30.15,SW,228,3.2,6.5,54,0.00,,---,0.00,VWS V14.01,2013-01-01 19:30:00,
2013-01-01 14:31:00,77.1,59.2,30.15,SW,221,9.9,10.1,54,0.00,,---,0.00,VWS V14.01,2013-01-01 19:31:00,
2013-01-01 14:32:00,77.2,59.2,30.16,WSW,245,4.0,7.3,54,0.00,,---,0.00,VWS V14.01,2013-01-01 19:32:00,
2013-01-01 14:36:00,77.5,59.8,30.16,SW,219,5.2,7.3,54,0.00,,---,0.00,VWS V14.01,2013-01-01 19:36:00,
2013-01-01 14:37:00,77.2,59.7,30.15,SSW,208,4.0,8.9,55,0.00,,---,0.00,VWS V14.01,2013-01-01 19:37:00,
2013-01-01 14:41:00,77.5,59.8,30.15,SSW,207,4.7,6.4,54,0.00,,---,0.00,VWS V14.01,2013-01-01 19:41:00,
2013-01-01 14:42:00,77.4,59.2,30.16,South,191,9.4,14.2,53,0.00,,---,0.00,VWS V14.01,2013-01-01 19:42:00,
2013-01-01 14:46:00,77.2,59.3,30.16,SSW,205,4.8,7.4,54,0.00,,---,0.00,VWS V14.01,2013-01-01 19:46:00,
2013-01-01 14:47:00,77.2,59.4,30.15,WSW,242,2.5,4.2,54,0.00,,---,0.00,VWS V14.01,2013-01-01 19:47:00,
2013-01-01 14:51:00,77.1,59.5,30.16,SW,217,6.6,9.7,55,0.00,,---,0.00,VWS V14.01,2013-01-01 19:51:00,
2013-01-01 14:52:00,77.0,59.4,30.15,WSW,246,10.2,12.8,55,0.00,,---,0.00,VWS V14.01,2013-01-01 19:52:00,
2013-01-01 14:56:00,77.1,59.9,30.15,WSW,240,4.3,5.2,55,0.00,,---,0.00,VWS V14.01,2013-01-01 19:56:00,
2013-01-01 14:57:00,77.0,59.6,30.15,SW,214,11.5,11.5,55,0.00,,---,0.00,VWS V14.01,2013-01-01 19:57:00,
2013-01-01 15:01:00,77.3,59.7,30.15,SSW,197,1.9,2.6,55,0.00,,---,0.00,VWS V14.01,2013-01-01 20:01:00,
2013-01-01 15:02:00,77.1,59.7,30.15,SSW,201,4.5,5.7,55,0.00,,---,0.00,VWS V14.01,2013-01-01 20:02:00,
2013-01-01 15:06:00,77.4,59.5,30.15,SW,214,6.3,11.0,54,0.00,,---,0.00,VWS V14.01,2013-01-01 20:06:00,
2013-01-01 15:07:00,77.7,59.7,30.15,SSW,193,4.5,7.8,54,0.00,,---,0.00,VWS V14.01,2013-01-01 20:07:00,
2013-01-01 15:11:00,77.7,59.7,30.15,SW,232,6.5,9.6,54,0.00,,---,0.00,VWS V14.01,2013-01-01 20:11:00,
2013-01-01 15:12:00,77.7,59.8,30.15,SW,215,6.6,6.6,54,0.00,,---,0.00,VWS V14.01,2013-01-01 20:12:00,
2013-01-01 15:16:00,77.7,59.8,30.15,SSW,208,8.8,9.7,54,0.00,,---,0.00,VWS V14.01,2013-01-01 20:16:00,
2013-01-01 15:17:00,77.7,59.5,30.15,SSW,202,6.2,9.7,54,0.00,,---,0.00,VWS V14.01,2013-01-01 20:17:00,
2013-01-01 15:21:00,77.5,59.5,30.15,SW,228,5.8,6.5,54,0.00,,---,0.00,VWS V14.01,2013-01-01 20:21:00,
2013-01-01 15:22:00,77.7,59.6,30.15,West,273,2.7,6.5,54,0.00,,---,0.00,VWS V14.01,2013-01-01 20:22:00,
2013-01-01 15:27:00,77.7,60.0,30.15,SSW,200,5.5,7.5,54,0.00,,---,0.00,VWS V14.01,2013-01-01 20:27:00,
2013-01-01 15:32:00,77.2,59.4,30.15,SSW,195,3.5,5.3,54,0.00,,---,0.00,VWS V14.01,2013-01-01 20:32:00,
2013-01-01 15:37:00,76.7,58.9,30.14,SE,146,7.8,14.9,54,0.00,,---,0.00,VWS V14.01,2013-01-01 20:37:00,
2013-01-01 15:38:00,76.9,59.3,30.14,SSW,207,12.5,13.0,55,0.00,,---,0.00,VWS V14.01,2013-01-01 20:38:00,
2013-01-01 15:42:00,76.9,59.5,30.15,South,191,2.5,8.0,55,0.00,,---,0.00,VWS V14.01,2013-01-01 20:42:00,
2013-01-01 15:43:00,76.9,59.0,30.15,SSW,202,8.0,8.0,54,0.00,,---,0.00,VWS V14.01,2013-01-01 20:43:00,
2013-01-01 15:47:00,76.8,59.7,30.15,South,172,4.8,8.9,56,0.00,,---,0.00,VWS V14.01,2013-01-01 20:47:00,
2013-01-01 15:48:00,76.7,59.2,30.15,SW,215,10.1,10.1,55,0.00,,---,0.00,VWS V14.01,2013-01-01 20:48:00,
2013-01-01 15:52:00,77.1,59.0,30.15,SSW,204,5.2,11.5,54,0.00,,---,0.00,VWS V14.01,2013-01-01 20:52:00,
2013-01-01 15:53:00,77.0,58.9,30.15,SSW,204,4.5,14.3,54,0.00,,---,0.00,VWS V14.01,2013-01-01 20:53:00,
2013-01-01 15:57:00,76.8,59.2,30.15,South,184,9.3,10.9,54,0.00,,---,0.00,VWS V14.01,2013-01-01 20:57:00,
2013-01-01 15:58:00,77.0,59.5,30.15,South,186,1.4,8.3,55,0.00,,---,0.00,VWS V14.01,2013-01-01 20:58:00,
2013-01-01 16:02:00,76.4,59.0,30.15,South,187,10.8,11.3,55,0.00,,---,0.00,VWS V14.01,2013-01-01 21:02:00,
2013-01-01 16:03:00,76.3,58.8,30.15,SSW,195,5.0,8.9,55,0.00,,---,0.00,VWS V14.01,2013-01-01 21:03:00,
2013-01-01 16:07:00,76.4,59.7,30.15,SSW,194,8.6,9.6,56,0.00,,---,0.00,VWS V14.01,2013-01-01 21:07:00,
2013-01-01 16:08:00,76.3,59.6,30.15,SSW,200,6.1,12.1,56,0.00,,---,0.00,VWS V14.01,2013-01-01 21:08:00,
2013-01-01 16:12:00,76.4,60.2,30.15,SSW,194,6.6,7.3,57,0.00,,---,0.00,VWS V14.01,2013-01-01 21:12:00,
2013-01-01 16:13:00,76.5,60.2,30.15,WSW,249,1.4,7.3,57,0.00,,---,0.00,VWS V14.01,2013-01-01 21:13:00,
2013-01-01 16:17:00,76.5,60.6,30.14,South,180,3.0,3.0,58,0.00,,---,0.00,VWS V14.01,2013-01-01 21:17:00,
2013-01-01 16:18:00,76.5,60.5,30.15,SSW,202,7.5,9.3,58,0.00,,---,0.00,VWS V14.01,2013-01-01 21:18:00,
2013-01-01 16:19:00,76.4,60.5,30.15,WSW,252,3.3,4.8,58,0.00,,---,0.00,VWS V14.01,2013-01-01 21:19:00,
2013-01-01 16:23:00,76.2,59.4,30.15,South,180,8.0,8.0,56,0.00,,---,0.00,VWS V14.01,2013-01-01 21:23:00,
2013-01-01 16:24:00,76.1,59.3,30.15,South,188,4.2,13.4,56,0.00,,---,0.00,VWS V14.01,2013-01-01 21:24:00,
2013-01-01 16:28:00,76.0,59.2,30.15,SW,214,4.6,8.2,56,0.00,,---,0.00,VWS V14.01,2013-01-01 21:28:00,
2013-01-01 16:29:00,75.9,59.3,30.15,SW,224,6.6,7.0,56,0.00,,---,0.00,VWS V14.01,2013-01-01 21:29:00,
2013-01-01 16:33:00,76.0,59.8,30.15,SSW,193,6.1,6.7,57,0.00,,---,0.00,VWS V14.01,2013-01-01 21:33:00,
2013-01-01 16:34:00,75.9,59.7,30.15,WSW,246,3.7,5.2,57,0.00,,---,0.00,VWS V14.01,2013-01-01 21:34:00,
2013-01-01 16:38:00,75.9,59.4,30.15,SSW,205,3.4,7.4,57,0.00,,---,0.00,VWS V14.01,2013-01-01 21:38:00,
2013-01-01 16:39:00,76.0,59.5,30.14,SSW,212,4.2,4.2,57,0.00,,---,0.00,VWS V14.01,2013-01-01 21:39:00,
2013-01-01 16:43:00,75.9,59.5,30.15,SSE,149,3.0,4.9,57,0.00,,---,0.00,VWS V14.01,2013-01-01 21:43:00,
2013-01-01 16:44:00,75.7,59.4,30.15,SSE,167,5.4,6.4,57,0.00,,---,0.00,VWS V14.01,2013-01-01 21:44:00,
2013-01-01 16:48:00,75.4,59.3,30.15,WSW,246,3.9,8.0,57,0.00,,---,0.00,VWS V14.01,2013-01-01 21:48:00,
2013-01-01 16:49:00,75.6,59.5,30.15,SSW,202,4.0,5.4,57,0.00,,---,0.00,VWS V14.01,2013-01-01 21:49:00,
2013-01-01 16:53:00,75.3,59.7,30.15,SW,226,1.9,1.9,58,0.00,,---,0.00,VWS V14.01,2013-01-01 21:53:00,
2013-01-01 16:54:00,75.4,59.8,30.15,SW,214,5.7,5.7,58,0.00,,---,0.00,VWS V14.01,2013-01-01 21:54:00,
2013-01-01 16:58:00,75.1,59.8,30.14,SW,218,3.2,4.0,59,0.00,,---,0.00,VWS V14.01,2013-01-01 21:58:00,
2013-01-01 16:59:00,75.0,59.7,30.14,South,177,4.3,4.3,59,0.00,,---,0.00,VWS V14.01,2013-01-01 21:59:00,
2013-01-01 17:03:00,74.9,60.0,30.15,South,170,2.8,3.9,60,0.00,,---,0.00,VWS V14.01,2013-01-01 22:03:00,
2013-01-01 17:04:00,75.1,60.2,30.15,South,183,2.7,3.9,60,0.00,,---,0.00,VWS V14.01,2013-01-01 22:04:00,
2013-01-01 17:09:00,74.9,59.9,30.15,SSW,193,3.7,3.9,60,0.00,,---,0.00,VWS V14.01,2013-01-01 22:09:00,
2013-01-01 17:14:00,74.8,59.6,30.15,SSW,205,3.8,6.3,59,0.00,,---,0.00,VWS V14.01,2013-01-01 22:14:00,
2013-01-01 17:19:00,74.9,59.9,30.14,SW,229,2.5,3.0,60,0.00,,---,0.00,VWS V14.01,2013-01-01 22:19:00,
2013-01-01 17:24:00,74.8,60.2,30.15,SW,225,5.3,5.7,60,0.00,,---,0.00,VWS V14.01,2013-01-01 22:24:00,
2013-01-01 17:29:00,74.6,60.2,30.15,South,190,2.4,5.0,61,0.00,,---,0.00,VWS V14.01,2013-01-01 22:29:00,
2013-01-01 17:34:00,74.6,60.1,30.15,South,179,2.8,4.3,61,0.00,,---,0.00,VWS V14.01,2013-01-01 22:34:00,
2013-01-01 17:35:00,74.6,60.1,30.15,South,179,2.5,6.4,61,0.00,,---,0.00,VWS V14.01,2013-01-01 22:35:00,
2013-01-01 17:39:00,74.6,60.0,30.15,SSW,200,2.2,5.7,60,0.00,,---,0.00,VWS V14.01,2013-01-01 22:39:00,
2013-01-01 17:40:00,74.5,60.0,30.15,SSW,211,4.0,5.3,60,0.00,,---,0.00,VWS V14.01,2013-01-01 22:40:00,
2013-01-01 17:44:00,74.3,59.9,30.15,SSW,208,0.0,0.0,61,0.00,,---,0.00,VWS V14.01,2013-01-01 22:44:00,
2013-01-01 17:45:00,74.6,60.3,30.15,SSW,204,1.5,6.1,61,0.00,,---,0.00,VWS V14.01,2013-01-01 22:45:00,
2013-01-01 17:49:00,74.4,60.5,30.15,SSW,207,2.9,5.8,62,0.00,,---,0.00,VWS V14.01,2013-01-01 22:49:00,
2013-01-01 17:50:00,74.5,60.6,30.15,South,191,2.8,3.2,62,0.00,,---,0.00,VWS V14.01,2013-01-01 22:50:00,
2013-01-01 17:54:00,74.4,60.5,30.15,SSW,212,3.2,5.3,62,0.00,,---,0.00,VWS V14.01,2013-01-01 22:54:00,
2013-01-01 17:55:00,74.3,60.5,30.15,SSW,197,4.0,7.5,62,0.00,,---,0.00,VWS V14.01,2013-01-01 22:55:00,
2013-01-01 17:59:00,74.3,60.6,30.15,SSW,194,2.0,2.2,62,0.00,,---,0.00,VWS V14.01,2013-01-01 22:59:00,
2013-01-01 18:00:00,74.3,60.6,30.15,South,187,2.5,4.3,62,0.00,,---,0.00,VWS V14.01,2013-01-01 23:00:00,
2013-01-01 18:04:00,74.2,60.5,30.15,NW,305,0.4,3.2,62,0.00,,---,0.00,VWS V14.01,2013-01-01 23:04:00,
2013-01-01 18:05:00,74.2,60.5,30.15,SW,217,1.2,1.2,62,0.00,,---,0.00,VWS V14.01,2013-01-01 23:05:00,
2013-01-01 18:09:00,74.3,60.8,30.15,SW,221,3.7,4.1,63,0.00,,---,0.00,VWS V14.01,2013-01-01 23:09:00,
2013-01-01 18:10:00,74.1,60.6,30.15,West,276,1.3,4.1,63,0.00,,---,0.00,VWS V14.01,2013-01-01 23:10:00,
2013-01-01 18:11:00,74.3,60.7,30.15,SSW,212,2.2,3.0,63,0.00,,---,0.00,VWS V14.01,2013-01-01 23:11:00,
2013-01-01 18:15:00,74.3,60.7,30.15,SSW,207,1.1,1.9,63,0.00,,---,0.00,VWS V14.01,2013-01-01 23:15:00,
2013-01-01 18:16:00,74.3,60.7,30.15,SSW,194,3.2,4.8,62,0.00,,---,0.00,VWS V14.01,2013-01-01 23:16:00,
2013-01-01 18:20:00,74.2,60.5,30.15,SSW,197,3.4,4.3,62,0.00,,---,0.00,VWS V14.01,2013-01-01 23:20:00,
2013-01-01 18:21:00,74.1,60.3,30.15,SW,225,2.4,2.7,62,0.00,,---,0.00,VWS V14.01,2013-01-01 23:21:00,
2013-01-01 18:25:00,74.2,60.4,30.15,SSW,207,5.5,6.3,62,0.00,,---,0.00,VWS V14.01,2013-01-01 23:25:00,
2013-01-01 18:26:00,74.0,60.2,30.15,South,184,3.1,3.1,62,0.00,,---,0.00,VWS V14.01,2013-01-01 23:26:00,
2013-01-01 18:30:00,74.1,60.3,30.15,SSW,194,4.0,5.5,62,0.00,,---,0.00,VWS V14.01,2013-01-01 23:30:00,
2013-01-01 18:31:00,74.1,60.3,30.15,South,180,2.2,3.3,62,0.00,,---,0.00,VWS V14.01,2013-01-01 23:31:00,
2013-01-01 18:35:00,74.1,60.4,30.15,SSW,210,4.8,5.0,62,0.00,,---,0.00,VWS V14.01,2013-01-01 23:35:00,
2013-01-01 18:36:00,74.1,60.4,30.15,SSW,197,2.8,4.3,62,0.00,,---,0.00,VWS V14.01,2013-01-01 23:36:00,
2013-01-01 18:40:00,74.1,60.5,30.15,West,259,4.3,5.4,63,0.00,,---,0.00,VWS V14.01,2013-01-01 23:40:00,
2013-01-01 18:41:00,74.2,60.7,30.15,SSW,205,3.3,6.0,63,0.00,,---,0.00,VWS V14.01,2013-01-01 23:41:00,
2013-01-01 18:45:00,74.2,60.7,30.15,SW,225,3.1,4.3,63,0.00,,---,0.00,VWS V14.01,2013-01-01 23:45:00,
2013-01-01 18:47:00,74.3,60.8,30.15,SW,219,4.8,4.8,63,0.00,,---,0.00,VWS V14.01,2013-01-01 23:47:00,
2013-01-01 18:50:00,74.1,60.5,30.15,SSW,193,2.4,3.0,63,0.00,,---,0.00,VWS V14.01,2013-01-01 23:50:00,
2013-01-01 18:51:00,74.2,60.7,30.15,WSW,239,5.5,5.6,63,0.00,,---,0.00,VWS V14.01,2013-01-01 23:51:00,
2013-01-01 18:52:00,74.1,60.5,30.15,SW,217,2.2,4.4,62,0.00,,---,0.00,VWS V14.01,2013-01-01 23:52:00,
2013-01-01 18:55:00,74.1,60.6,30.15,SW,217,0.9,2.6,63,0.00,,---,0.00,VWS V14.01,2013-01-01 23:55:00,
2013-01-01 18:56:00,74.2,60.7,30.15,SSW,201,2.2,2.3,63,0.00,,---,0.00,VWS V14.01,2013-01-01 23:56:00,
2013-01-01 18:57:00,74.1,60.5,30.16,SW,224,2.1,2.1,63,0.00,,---,0.00,VWS V14.01,2013-01-01 23:57:00,
2013-01-01 19:00:00,74.1,60.4,30.16,SSW,204,3.0,3.8,62,0.00,,---,0.00,VWS V14.01,2013-01-02 00:00:00,
2013-01-01 19:01:00,74.0,60.3,30.16,WSW,245,2.7,3.5,62,0.00,,---,0.00,VWS V14.01,2013-01-02 00:01:00,
2013-01-01 19:02:00,74.0,60.2,30.16,South,190,2.2,7.4,62,0.00,,---,0.00,VWS V14.01,2013-01-02 00:02:00,
2013-01-01 19:05:00,73.9,59.9,30.16,South,177,1.0,1.4,62,0.00,,---,0.00,VWS V14.01,2013-01-02 00:05:00,
2013-01-01 19:06:00,74.0,60.0,30.16,West,278,0.9,1.5,62,0.00,,---,0.00,VWS V14.01,2013-01-02 00:06:00,
2013-01-01 19:07:00,74.0,60.0,30.16,SW,215,0.0,0.0,62,0.00,,---,0.00,VWS V14.01,2013-01-02 00:07:00,
2013-01-01 19:10:00,74.0,59.6,30.15,SSW,202,2.2,3.2,61,0.00,,---,0.00,VWS V14.01,2013-01-02 00:10:00,
2013-01-01 19:11:00,73.9,59.6,30.15,SW,219,0.7,2.2,61,0.00,,---,0.00,VWS V14.01,2013-01-02 00:11:00,
2013-01-01 19:12:00,73.9,59.4,30.16,SW,226,1.4,2.2,60,0.00,,---,0.00,VWS V14.01,2013-01-02 00:12:00,
2013-01-01 19:15:00,73.9,59.2,30.16,WSW,239,1.9,3.5,60,0.00,,---,0.00,VWS V14.01,2013-01-02 00:15:00,
2013-01-01 19:16:00,74.0,59.3,30.16,WSW,250,2.1,2.5,60,0.00,,---,0.00,VWS V14.01,2013-01-02 00:16:00,
2013-01-01 19:17:00,74.2,59.5,30.16,SW,229,1.9,2.4,60,0.00,,---,0.00,VWS V14.01,2013-01-02 00:17:00,
2013-01-01 19:21:00,73.9,59.3,30.16,South,191,0.0,0.7,60,0.00,,---,0.00,VWS V14.01,2013-01-02 00:21:00,
2013-01-01 19:22:00,73.9,59.3,30.16,SW,225,1.4,2.5,60,0.00,,---,0.00,VWS V14.01,2013-01-02 00:22:00,
2013-01-01 19:26:00,73.9,59.3,30.16,SW,231,4.4,4.4,60,0.00,,---,0.00,VWS V14.01,2013-01-02 00:26:00,
2013-01-01 19:27:00,74.0,59.2,30.16,SSW,207,1.7,4.6,60,0.00,,---,0.00,VWS V14.01,2013-01-02 00:27:00,
2013-01-01 19:28:00,73.9,59.2,30.16,WSW,242,2.9,2.9,60,0.00,,---,0.00,VWS V14.01,2013-01-02 00:28:00,
2013-01-01 19:31:00,73.9,59.2,30.16,SW,219,1.7,1.7,60,0.00,,---,0.00,VWS V14.01,2013-01-02 00:31:00,
2013-01-01 19:32:00,74.0,59.3,30.16,SW,215,0.0,1.4,60,0.00,,---,0.00,VWS V14.01,2013-01-02 00:32:00,
2013-01-01 19:33:00,74.0,59.3,30.16,West,273,2.2,2.2,60,0.00,,---,0.00,VWS V14.01,2013-01-02 00:33:00,
2013-01-01 19:36:00,74.1,59.4,30.16,SW,214,0.6,0.6,60,0.00,,---,0.00,VWS V14.01,2013-01-02 00:36:00,
2013-01-01 19:37:00,74.0,59.3,30.16,South,169,0.0,0.5,60,0.00,,---,0.00,VWS V14.01,2013-01-02 00:37:00,
2013-01-01 19:38:00,74.0,59.3,30.16,South,169,0.0,0.0,60,0.00,,---,0.00,VWS V14.01,2013-01-02 00:38:00,
2013-01-01 19:41:00,73.9,59.3,30.16,South,169,0.0,0.0,60,0.00,,---,0.00,VWS V14.01,2013-01-02 00:41:00,
2013-01-01 19:42:00,74.0,59.4,30.16,South,169,0.0,0.0,60,0.00,,---,0.00,VWS V14.01,2013-01-02 00:42:00,
2013-01-01 19:43:00,73.9,59.3,30.16,South,169,0.0,0.0,60,0.00,,---,0.00,VWS V14.01,2013-01-02 00:43:00,
2013-01-01 19:46:00,73.9,59.3,30.15,WSW,240,0.0,0.0,60,0.00,,---,0.00,VWS V14.01,2013-01-02 00:46:00,
2013-01-01 19:47:00,74.0,59.4,30.15,WSW,240,0.0,0.0,60,0.00,,---,0.00,VWS V14.01,2013-01-02 00:47:00,
2013-01-01 19:48:00,73.9,59.4,30.15,WSW,240,0.0,0.0,60,0.00,,---,0.00,VWS V14.01,2013-01-02 00:48:00,
2013-01-01 19:51:00,73.9,59.5,30.16,WSW,240,0.0,0.0,61,0.00,,---,0.00,VWS V14.01,2013-01-02 00:51:00,
2013-01-01 19:52:00,73.9,59.4,30.16,WSW,240,0.0,0.0,61,0.00,,---,0.00,VWS V14.01,2013-01-02 00:52:00,
2013-01-01 19:53:00,73.9,59.5,30.16,WSW,240,0.0,0.0,61,0.00,,---,0.00,VWS V14.01,2013-01-02 00:53:00,
2013-01-01 19:56:00,73.7,59.3,30.16,WSW,240,0.0,0.0,61,0.00,,---,0.00,VWS V14.01,2013-01-02 00:56:00,
2013-01-01 19:57:00,73.8,59.5,30.16,WSW,240,0.0,0.0,61,0.00,,---,0.00,VWS V14.01,2013-01-02 00:57:00,
2013-01-01 19:58:00,73.8,59.5,30.16,WSW,240,0.0,0.0,61,0.00,,---,0.00,VWS V14.01,2013-01-02 00:58:00,
2013-01-01 20:01:00,73.6,59.4,30.15,WSW,240,0.0,0.0,61,0.00,,---,0.00,VWS V14.01,2013-01-02 01:01:00,
2013-01-01 20:02:00,73.6,59.4,30.16,WSW,240,0.0,0.0,61,0.00,,---,0.00,VWS V14.01,2013-01-02 01:02:00,
2013-01-01 20:03:00,73.8,59.6,30.16,WSW,240,0.0,0.0,61,0.00,,---,0.00,VWS V14.01,2013-01-02 01:03:00,
2013-01-01 20:06:00,73.5,59.5,30.16,WSW,240,0.0,0.0,62,0.00,,---,0.00,VWS V14.01,2013-01-02 01:06:00,
2013-01-01 20:07:00,73.6,59.7,30.16,WSW,240,0.0,0.0,62,0.00,,---,0.00,VWS V14.01,2013-01-02 01:07:00,
2013-01-01 20:08:00,73.4,59.5,30.16,WSW,240,0.0,0.0,62,0.00,,---,0.00,VWS V14.01,2013-01-02 01:08:00,
2013-01-01 20:11:00,73.3,59.5,30.16,South,174,0.0,0.2,62,0.00,,---,0.00,VWS V14.01,2013-01-02 01:11:00,
2013-01-01 20:12:00,73.4,59.7,30.16,South,174,0.0,0.0,62,0.00,,---,0.00,VWS V14.01,2013-01-02 01:12:00,
2013-01-01 20:13:00,73.3,59.5,30.16,South,174,0.0,0.0,62,0.00,,---,0.00,VWS V14.01,2013-01-02 01:13:00,
2013-01-01 20:16:00,73.1,59.4,30.16,South,174,0.0,0.0,62,0.00,,---,0.00,VWS V14.01,2013-01-02 01:16:00,
2013-01-01 20:17:00,73.2,59.5,30.16,South,174,0.0,0.0,62,0.00,,---,0.00,VWS V14.01,2013-01-02 01:17:00,
2013-01-01 20:18:00,73.2,59.5,30.16,South,174,0.0,0.0,62,0.00,,---,0.00,VWS V14.01,2013-01-02 01:18:00,
2013-01-01 20:21:00,73.3,59.8,30.16,South,174,0.0,0.0,63,0.00,,---,0.00,VWS V14.01,2013-01-02 01:21:00,
2013-01-01 20:22:00,73.1,59.6,30.16,South,174,0.0,0.0,63,0.00,,---,0.00,VWS V14.01,2013-01-02 01:22:00,
2013-01-01 20:23:00,73.1,59.6,30.16,South,174,0.0,0.0,63,0.00,,---,0.00,VWS V14.01,2013-01-02 01:23:00,
2013-01-01 20:24:00,73.0,59.5,30.16,South,174,0.0,0.0,63,0.00,,---,0.00,VWS V14.01,2013-01-02 01:24:00,
2013-01-01 20:26:00,73.0,59.5,30.16,South,174,0.0,0.0,63,0.00,,---,0.00,VWS V14.01,2013-01-02 01:26:00,
2013-01-01 20:27:00,73.0,59.5,30.16,South,174,0.0,0.0,63,0.00,,---,0.00,VWS V14.01,2013-01-02 01:27:00,
2013-01-01 20:28:00,73.1,59.7,30.16,South,174,0.0,0.0,63,0.00,,---,0.00,VWS V14.01,2013-01-02 01:28:00,
2013-01-01 20:29:00,72.9,59.5,30.16,South,174,0.0,0.0,63,0.00,,---,0.00,VWS V14.01,2013-01-02 01:29:00,
2013-01-01 20:31:00,72.8,59.6,30.17,South,174,0.0,0.0,63,0.00,,---,0.00,VWS V14.01,2013-01-02 01:31:00,
2013-01-01 20:33:00,72.8,59.6,30.16,South,174,0.0,0.0,63,0.00,,---,0.00,VWS V14.01,2013-01-02 01:33:00,
2013-01-01 20:34:00,72.8,59.7,30.16,South,174,0.0,0.0,64,0.00,,---,0.00,VWS V14.01,2013-01-02 01:34:00,
2013-01-01 20:36:00,72.6,59.7,30.16,South,174,0.0,0.0,64,0.00,,---,0.00,VWS V14.01,2013-01-02 01:36:00,
2013-01-01 20:38:00,72.7,59.8,30.16,South,174,0.0,0.0,64,0.00,,---,0.00,VWS V14.01,2013-01-02 01:38:00,
2013-01-01 20:39:00,72.7,59.8,30.16,South,174,0.0,0.0,64,0.00,,---,0.00,VWS V14.01,2013-01-02 01:39:00,
2013-01-01 20:42:00,72.5,59.6,30.16,South,174,0.0,0.0,64,0.00,,---,0.00,VWS V14.01,2013-01-02 01:42:00,
2013-01-01 20:43:00,72.2,59.4,30.17,South,174,0.0,0.0,64,0.00,,---,0.00,VWS V14.01,2013-01-02 01:43:00,
2013-01-01 20:44:00,72.2,59.4,30.17,South,174,0.0,0.0,64,0.00,,---,0.00,VWS V14.01,2013-01-02 01:44:00,
2013-01-01 20:47:00,72.1,59.4,30.17,South,174,0.0,0.0,64,0.00,,---,0.00,VWS V14.01,2013-01-02 01:47:00,
2013-01-01 20:48:00,71.9,59.3,30.17,South,174,0.0,0.0,64,0.00,,---,0.00,VWS V14.01,2013-01-02 01:48:00,
2013-01-01 20:49:00,71.9,59.3,30.17,South,174,0.0,0.0,65,0.00,,---,0.00,VWS V14.01,2013-01-02 01:49:00,
2013-01-01 20:52:00,71.7,59.3,30.17,South,174,0.0,0.0,65,0.00,,---,0.00,VWS V14.01,2013-01-02 01:52:00,
2013-01-01 20:53:00,71.8,59.4,30.17,South,174,0.0,0.0,65,0.00,,---,0.00,VWS V14.01,2013-01-02 01:53:00,
2013-01-01 20:54:00,71.6,59.3,30.17,South,174,0.0,0.0,65,0.00,,---,0.00,VWS V14.01,2013-01-02 01:54:00,
2013-01-01 20:57:00,71.5,59.4,30.17,South,174,0.0,0.0,66,0.00,,---,0.00,VWS V14.01,2013-01-02 01:57:00,
2013-01-01 20:58:00,71.3,59.3,30.17,South,174,0.0,0.0,66,0.00,,---,0.00,VWS V14.01,2013-01-02 01:58:00,
2013-01-01 20:59:00,71.4,59.4,30.17,South,174,0.0,0.0,66,0.00,,---,0.00,VWS V14.01,2013-01-02 01:59:00,
2013-01-01 21:02:00,71.3,59.5,30.17,South,174,0.0,0.0,66,0.00,,---,0.00,VWS V14.01,2013-01-02 02:02:00,
2013-01-01 21:03:00,71.1,59.3,30.17,South,174,0.0,0.0,66,0.00,,---,0.00,VWS V14.01,2013-01-02 02:03:00,
2013-01-01 21:04:00,71.1,59.4,30.17,South,174,0.0,0.0,66,0.00,,---,0.00,VWS V14.01,2013-01-02 02:04:00,
2013-01-01 21:07:00,70.8,59.2,30.17,South,174,0.0,0.0,67,0.00,,---,0.00,VWS V14.01,2013-01-02 02:07:00,
2013-01-01 21:08:00,70.9,59.4,30.17,South,174,0.0,0.0,67,0.00,,---,0.00,VWS V14.01,2013-01-02 02:08:00,
2013-01-01 21:09:00,70.7,59.3,30.17,South,174,0.0,0.0,67,0.00,,---,0.00,VWS V14.01,2013-01-02 02:09:00,
2013-01-01 21:10:00,70.7,59.3,30.17,South,174,0.0,0.0,67,0.00,,---,0.00,VWS V14.01,2013-01-02 02:10:00,
2013-01-01 21:12:00,70.5,59.2,30.17,South,174,0.0,0.0,68,0.00,,---,0.00,VWS V14.01,2013-01-02 02:12:00,
2013-01-01 21:14:00,70.5,59.3,30.17,South,174,0.0,0.0,68,0.00,,---,0.00,VWS V14.01,2013-01-02 02:14:00,
2013-01-01 21:15:00,70.3,59.2,30.17,South,174,0.0,0.0,68,0.00,,---,0.00,VWS V14.01,2013-01-02 02:15:00,
2013-01-01 21:17:00,70.3,59.2,30.17,South,174,0.0,0.0,68,0.00,,---,0.00,VWS V14.01,2013-01-02 02:17:00,
2013-01-01 21:19:00,70.3,59.2,30.18,South,174,0.0,0.0,68,0.00,,---,0.00,VWS V14.01,2013-01-02 02:19:00,
2013-01-01 21:20:00,70.3,59.3,30.18,South,174,0.0,0.0,68,0.00,,---,0.00,VWS V14.01,2013-01-02 02:20:00,
2013-01-01 21:22:00,70.0,59.2,30.18,South,174,0.0,0.0,68,0.00,,---,0.00,VWS V14.01,2013-01-02 02:22:00,
2013-01-01 21:24:00,70.0,59.3,30.18,South,174,0.0,0.0,69,0.00,,---,0.00,VWS V14.01,2013-01-02 02:24:00,
2013-01-01 21:25:00,69.8,59.1,30.17,South,174,0.0,0.0,69,0.00,,---,0.00,VWS V14.01,2013-01-02 02:25:00,
2013-01-01 21:27:00,69.7,59.2,30.17,South,174,0.0,0.0,69,0.00,,---,0.00,VWS V14.01,2013-01-02 02:27:00,
2013-01-01 21:29:00,69.6,59.1,30.17,South,174,0.0,0.0,69,0.00,,---,0.00,VWS V14.01,2013-01-02 02:29:00,
2013-01-01 21:30:00,69.8,59.3,30.17,South,174,0.0,0.0,69,0.00,,---,0.00,VWS V14.01,2013-01-02 02:30:00,
2013-01-01 21:32:00,69.5,59.2,30.18,South,174,0.0,0.0,70,0.00,,---,0.00,VWS V14.01,2013-01-02 02:32:00,
2013-01-01 21:34:00,69.6,59.3,30.18,South,174,0.0,0.0,70,0.00,,---,0.00,VWS V14.01,2013-01-02 02:34:00,
2013-01-01 21:35:00,69.6,59.3,30.18,South,174,0.0,0.0,70,0.00,,---,0.00,VWS V14.01,2013-01-02 02:35:00,
2013-01-01 21:37:00,69.4,59.3,30.18,South,174,0.0,0.0,70,0.00,,---,0.00,VWS V14.01,2013-01-02 02:37:00,
2013-01-01 21:39:00,69.4,59.4,30.18,South,174,0.0,0.0,70,0.00,,---,0.00,VWS V14.01,2013-01-02 02:39:00,
2013-01-01 21:40:00,69.4,59.4,30.18,South,174,0.0,0.0,71,0.00,,---,0.00,VWS V14.01,2013-01-02 02:40:00,
2013-01-01 21:42:00,69.4,59.5,30.18,South,174,0.0,0.0,71,0.00,,---,0.00,VWS V14.01,2013-01-02 02:42:00,
2013-01-01 21:44:00,69.3,59.5,30.18,South,174,0.0,0.0,71,0.00,,---,0.00,VWS V14.01,2013-01-02 02:44:00,
2013-01-01 21:45:00,69.4,59.6,30.18,South,174,0.0,0.0,71,0.00,,---,0.00,VWS V14.01,2013-01-02 02:45:00,
2013-01-01 21:47:00,69.4,59.6,30.18,South,174,0.0,0.0,71,0.00,,---,0.00,VWS V14.01,2013-01-02 02:47:00,
2013-01-01 21:49:00,69.3,59.5,30.17,South,174,0.0,0.0,71,0.00,,---,0.00,VWS V14.01,2013-01-02 02:49:00,
2013-01-01 21:50:00,69.3,59.5,30.17,South,174,0.0,0.0,71,0.00,,---,0.00,VWS V14.01,2013-01-02 02:50:00,
2013-01-01 21:52:00,69.2,59.6,30.18,NNW,330,0.0,0.4,71,0.00,,---,0.00,VWS V14.01,2013-01-02 02:52:00,
2013-01-01 21:55:00,69.2,59.6,30.18,NNW,330,0.0,0.0,72,0.00,,---,0.00,VWS V14.01,2013-01-02 02:55:00,
2013-01-01 21:57:00,69.3,59.7,30.18,NNW,330,0.0,0.0,71,0.00,,---,0.00,VWS V14.01,2013-01-02 02:57:00,
2013-01-01 22:00:00,69.2,59.5,30.18,NNW,330,0.0,0.0,71,0.00,,---,0.00,VWS V14.01,2013-01-02 03:00:00,
2013-01-01 22:02:00,69.3,59.6,30.17,NNW,330,0.0,0.0,71,0.00,,---,0.00,VWS V14.01,2013-01-02 03:02:00,
2013-01-01 22:05:00,69.3,59.7,30.17,NNW,330,0.0,0.0,71,0.00,,---,0.00,VWS V14.01,2013-01-02 03:05:00,
2013-01-01 22:07:00,69.0,59.4,30.17,NNW,330,0.0,0.0,72,0.00,,---,0.00,VWS V14.01,2013-01-02 03:07:00,
2013-01-01 22:10:00,68.9,59.4,30.17,NNW,330,0.0,0.0,72,0.00,,---,0.00,VWS V14.01,2013-01-02 03:10:00,
2013-01-01 22:11:00,68.8,59.3,30.17,NNW,330,0.0,0.0,72,0.00,,---,0.00,VWS V14.01,2013-01-02 03:11:00,
2013-01-01 22:12:00,68.9,59.5,30.18,NNW,330,0.0,0.0,72,0.00,,---,0.00,VWS V14.01,2013-01-02 03:12:00,
2013-01-01 22:15:00,69.1,59.7,30.17,NNW,330,0.0,0.0,72,0.00,,---,0.00,VWS V14.01,2013-01-02 03:15:00,
2013-01-01 22:16:00,68.7,59.4,30.17,NNW,330,0.0,0.0,72,0.00,,---,0.00,VWS V14.01,2013-01-02 03:16:00,
2013-01-01 22:18:00,68.9,59.6,30.18,NNW,330,0.0,0.0,72,0.00,,---,0.00,VWS V14.01,2013-01-02 03:18:00,
2013-01-01 22:20:00,68.9,59.7,30.17,NNW,330,0.0,0.0,72,0.00,,---,0.00,VWS V14.01,2013-01-02 03:20:00,
2013-01-01 22:21:00,68.8,59.6,30.17,NNW,330,0.0,0.0,72,0.00,,---,0.00,VWS V14.01,2013-01-02 03:21:00,
2013-01-01 22:23:00,68.9,59.7,30.17,NNW,330,0.0,0.0,73,0.00,,---,0.00,VWS V14.01,2013-01-02 03:23:00,
2013-01-01 22:25:00,68.9,59.8,30.17,NNW,330,0.0,0.0,73,0.00,,---,0.00,VWS V14.01,2013-01-02 03:25:00,
2013-01-01 22:26:00,68.8,59.7,30.17,NNW,330,0.0,0.0,73,0.00,,---,0.00,VWS V14.01,2013-01-02 03:26:00,
2013-01-01 22:28:00,68.8,59.7,30.17,NNW,330,0.0,0.0,73,0.00,,---,0.00,VWS V14.01,2013-01-02 03:28:00,
2013-01-01 22:30:00,68.8,59.7,30.17,NNW,330,0.0,0.0,73,0.00,,---,0.00,VWS V14.01,2013-01-02 03:30:00,
2013-01-01 22:31:00,68.7,59.6,30.17,NNW,330,0.0,0.0,73,0.00,,---,0.00,VWS V14.01,2013-01-02 03:31:00,
2013-01-01 22:33:00,68.8,59.9,30.17,SSE,153,0.8,1.0,73,0.00,,---,0.00,VWS V14.01,2013-01-02 03:33:00,
2013-01-01 22:35:00,68.7,59.8,30.17,SE,124,0.0,0.0,73,0.00,,---,0.00,VWS V14.01,2013-01-02 03:35:00,
2013-01-01 22:36:00,68.6,59.7,30.17,SE,124,0.0,0.0,73,0.00,,---,0.00,VWS V14.01,2013-01-02 03:36:00,
2013-01-01 22:38:00,68.7,60.0,30.17,SE,124,0.0,0.0,74,0.00,,---,0.00,VWS V14.01,2013-01-02 03:38:00,
2013-01-01 22:41:00,68.5,59.9,30.17,SE,124,0.0,0.0,74,0.00,,---,0.00,VWS V14.01,2013-01-02 03:41:00,
2013-01-01 22:43:00,68.3,59.8,30.17,SE,124,0.0,0.0,74,0.00,,---,0.00,VWS V14.01,2013-01-02 03:43:00,
2013-01-01 22:46:00,68.3,59.9,30.17,SE,124,0.0,0.0,74,0.00,,---,0.00,VWS V14.01,2013-01-02 03:46:00,
2013-01-01 22:48:00,68.2,59.9,30.17,SE,124,0.0,0.0,75,0.00,,---,0.00,VWS V14.01,2013-01-02 03:48:00,
2013-01-01 22:51:00,68.3,60.0,30.16,South,172,1.9,1.9,75,0.00,,---,0.00,VWS V14.01,2013-01-02 03:51:00,
2013-01-01 22:52:00,68.3,60.0,30.16,South,180,1.6,2.0,75,0.00,,---,0.00,VWS V14.01,2013-01-02 03:52:00,
2013-01-01 22:53:00,68.3,60.0,30.16,South,169,1.4,1.7,75,0.00,,---,0.00,VWS V14.01,2013-01-02 03:53:00,
2013-01-01 22:56:00,68.4,60.2,30.17,South,174,1.7,1.9,75,0.00,,---,0.00,VWS V14.01,2013-01-02 03:56:00,
2013-01-01 22:57:00,68.4,60.3,30.17,SSE,150,1.7,2.4,75,0.00,,---,0.00,VWS V14.01,2013-01-02 03:57:00,
2013-01-01 22:58:00,68.4,60.3,30.17,SSE,166,1.6,2.0,75,0.00,,---,0.00,VWS V14.01,2013-01-02 03:58:00,
2013-01-01 23:01:00,68.4,60.2,30.16,South,170,0.4,0.6,75,0.00,,---,0.00,VWS V14.01,2013-01-02 04:01:00,
2013-01-01 23:02:00,68.4,60.2,30.16,South,180,0.6,0.6,75,0.00,,---,0.00,VWS V14.01,2013-01-02 04:02:00,
2013-01-01 23:03:00,68.3,60.2,30.16,SSE,159,0.4,0.6,75,0.00,,---,0.00,VWS V14.01,2013-01-02 04:03:00,
2013-01-01 23:06:00,68.2,60.0,30.16,SE,134,0.0,0.0,75,0.00,,---,0.00,VWS V14.01,2013-01-02 04:06:00,
2013-01-01 23:07:00,68.3,60.2,30.16,SE,134,0.0,0.0,75,0.00,,---,0.00,VWS V14.01,2013-01-02 04:07:00,
2013-01-01 23:08:00,68.3,60.2,30.15,SE,134,0.0,0.0,75,0.00,,---,0.00,VWS V14.01,2013-01-02 04:08:00,
2013-01-01 23:11:00,68.2,60.0,30.16,SSE,158,0.0,0.2,75,0.00,,---,0.00,VWS V14.01,2013-01-02 04:11:00,
2013-01-01 23:12:00,68.2,60.0,30.16,SSE,158,0.0,0.0,75,0.00,,---,0.00,VWS V14.01,2013-01-02 04:12:00,
2013-01-01 23:13:00,68.1,59.8,30.16,SSE,158,0.0,0.0,75,0.00,,---,0.00,VWS V14.01,2013-01-02 04:13:00,
2013-01-01 23:16:00,68.2,60.0,30.16,South,180,0.7,1.1,75,0.00,,---,0.00,VWS V14.01,2013-01-02 04:16:00,
2013-01-01 23:17:00,68.2,60.0,30.16,SSW,193,0.7,1.1,75,0.00,,---,0.00,VWS V14.01,2013-01-02 04:17:00,
2013-01-01 23:18:00,68.1,59.9,30.15,South,184,1.6,1.6,75,0.00,,---,0.00,VWS V14.01,2013-01-02 04:18:00,
2013-01-01 23:21:00,67.9,59.7,30.15,SSE,150,0.0,0.0,75,0.00,,---,0.00,VWS V14.01,2013-01-02 04:21:00,
2013-01-01 23:22:00,68.0,59.8,30.15,SSE,150,0.0,0.0,75,0.00,,---,0.00,VWS V14.01,2013-01-02 04:22:00,
2013-01-01 23:23:00,68.1,59.8,30.16,SSE,150,0.0,0.0,75,0.00,,---,0.00,VWS V14.01,2013-01-02 04:23:00,
2013-01-01 23:26:00,68.0,59.8,30.15,SSE,150,0.0,0.0,75,0.00,,---,0.00,VWS V14.01,2013-01-02 04:26:00,
2013-01-01 23:27:00,68.0,59.8,30.15,SSE,150,0.0,0.0,75,0.00,,---,0.00,VWS V14.01,2013-01-02 04:27:00,
2013-01-01 23:29:00,67.8,59.6,30.15,SSE,150,0.0,0.0,75,0.00,,---,0.00,VWS V14.01,2013-01-02 04:29:00,
2013-01-01 23:31:00,67.7,59.5,30.15,SSE,150,0.0,0.0,75,0.00,,---,0.00,VWS V14.01,2013-01-02 04:31:00,
2013-01-01 23:32:00,67.8,59.5,30.16,SSE,150,0.0,0.0,75,0.00,,---,0.00,VWS V14.01,2013-01-02 04:32:00,
2013-01-01 23:34:00,67.7,59.5,30.16,SSE,158,0.0,0.0,75,0.00,,---,0.00,VWS V14.01,2013-01-02 04:34:00,
2013-01-01 23:36:00,67.5,59.3,30.15,SSE,158,0.0,0.0,75,0.00,,---,0.00,VWS V14.01,2013-01-02 04:36:00,
2013-01-01 23:37:00,67.6,59.4,30.15,SSE,158,0.0,0.0,75,0.00,,---,0.00,VWS V14.01,2013-01-02 04:37:00,
2013-01-01 23:39:00,67.4,59.2,30.15,SSE,158,0.0,0.0,75,0.00,,---,0.00,VWS V14.01,2013-01-02 04:39:00,
2013-01-01 23:42:00,67.4,59.3,30.15,SE,139,0.0,0.0,75,0.00,,---,0.00,VWS V14.01,2013-01-02 04:42:00,
2013-01-01 23:44:00,67.4,59.4,30.15,SE,139,0.0,0.0,75,0.00,,---,0.00,VWS V14.01,2013-01-02 04:44:00,
2013-01-01 23:47:00,67.3,59.3,30.15,SE,139,0.0,0.0,75,0.00,,---,0.00,VWS V14.01,2013-01-02 04:47:00,
2013-01-01 23:59:00,67.0,59.0,30.14,SE,139,0.0,0.0,75,0.00,,---,0.00,VWS V14.01,2013-01-02 04:59:00,